<?xml version='1.0' encoding='UTF-8'?><gpx version="1.1" creator="JPX - https://github.com/jenetics/jpx" xmlns="http://www.topografix.com/GPX/1/1"><trk><trkseg><trkpt lat="45.8829067" lon="4.5622883"><ele>363.0</ele><time>2026-04-02T13:02:48.47Z</time></trkpt><trkpt lat="45.8829983" lon="4.56229"><ele>363.0</ele><time>2026-04-02T13:05:01.47Z</time></trkpt><trkpt lat="45.8831033" lon="4.5623683"><ele>363.0</ele><time>2026-04-02T13:05:03.47Z</time></trkpt><trkpt lat="45.8831717" lon="4.5624167"><ele>363.0</ele><time>2026-04-02T13:05:04.47Z</time></trkpt><trkpt lat="45.8832517" lon="4.5624667"><ele>363.0</ele><time>2026-04-02T13:05:05.47Z</time></trkpt><trkpt lat="45.8833533" lon="4.5624983"><ele>362.3333333333333</ele><time>2026-04-02T13:05:06.47Z</time></trkpt><trkpt lat="45.883455" lon="4.56253"><ele>361.6666666666667</ele><time>2026-04-02T13:05:07.47Z</time></trkpt><trkpt lat="45.88354" lon="4.5625617"><ele>361.0</ele><time>2026-04-02T13:05:08.47Z</time></trkpt><trkpt lat="45.883615" lon="4.562615"><ele>360.33333333333337</ele><time>2026-04-02T13:05:09.47Z</time></trkpt><trkpt lat="45.8836883" lon="4.5626817"><ele>359.6666666666667</ele><time>2026-04-02T13:05:10.47Z</time></trkpt><trkpt lat="45.8837383" lon="4.5627533"><ele>359.0</ele><time>2026-04-02T13:05:11.469Z</time></trkpt><trkpt lat="45.88378" lon="4.5628333"><ele>358.6</ele><time>2026-04-02T13:05:12.47Z</time></trkpt><trkpt lat="45.8838133" lon="4.562915"><ele>358.2</ele><time>2026-04-02T13:05:13.47Z</time></trkpt><trkpt lat="45.8838417" lon="4.5630183"><ele>357.8</ele><time>2026-04-02T13:05:14.47Z</time></trkpt><trkpt lat="45.883875" lon="4.5631617"><ele>357.40000000000003</ele><time>2026-04-02T13:05:15.47Z</time></trkpt><trkpt lat="45.883905" lon="4.563335"><ele>357.0</ele><time>2026-04-02T13:05:16.469Z</time></trkpt><trkpt lat="45.88393" lon="4.5635167"><ele>355.5</ele><time>2026-04-02T13:05:17.47Z</time></trkpt><trkpt lat="45.8839617" lon="4.563705"><ele>354.0</ele><time>2026-04-02T13:05:18.47Z</time></trkpt><trkpt lat="45.8840017" lon="4.5639133"><ele>352.5</ele><time>2026-04-02T13:05:19.47Z</time></trkpt><trkpt lat="45.8840483" lon="4.5641133"><ele>351.0</ele><time>2026-04-02T13:05:20.47Z</time></trkpt><trkpt lat="45.884085" lon="4.564295"><ele>351.0</ele><time>2026-04-02T13:05:21.47Z</time></trkpt><trkpt lat="45.8841217" lon="4.5644617"><ele>351.0</ele><time>2026-04-02T13:05:22.47Z</time></trkpt><trkpt lat="45.8841617" lon="4.5646083"><ele>351.0</ele><time>2026-04-02T13:05:23.47Z</time></trkpt><trkpt lat="45.8841933" lon="4.5647417"><ele>351.0</ele><time>2026-04-02T13:05:24.47Z</time></trkpt><trkpt lat="45.8842233" lon="4.564875"><ele>351.0</ele><time>2026-04-02T13:05:25.47Z</time></trkpt><trkpt lat="45.8842583" lon="4.564985"><ele>351.00000000000006</ele><time>2026-04-02T13:05:26.47Z</time></trkpt><trkpt lat="45.88429" lon="4.56508"><ele>351.0</ele><time>2026-04-02T13:05:27.47Z</time></trkpt><trkpt lat="45.8843067" lon="4.565175"><ele>351.0</ele><time>2026-04-02T13:05:28.47Z</time></trkpt><trkpt lat="45.8843017" lon="4.565275"><ele>351.0</ele><time>2026-04-02T13:05:29.47Z</time></trkpt><trkpt lat="45.8842733" lon="4.5653817"><ele>351.0</ele><time>2026-04-02T13:05:30.47Z</time></trkpt><trkpt lat="45.8842167" lon="4.565475"><ele>351.00000000000006</ele><time>2026-04-02T13:05:31.47Z</time></trkpt><trkpt lat="45.8841633" lon="4.5655433"><ele>351.0</ele><time>2026-04-02T13:05:32.47Z</time></trkpt><trkpt lat="45.8840383" lon="4.56559"><ele>350.8</ele><time>2026-04-02T13:05:34.47Z</time></trkpt><trkpt lat="45.8839517" lon="4.5655783"><ele>350.6</ele><time>2026-04-02T13:05:35.47Z</time></trkpt><trkpt lat="45.8838467" lon="4.56555"><ele>350.4</ele><time>2026-04-02T13:05:36.47Z</time></trkpt><trkpt lat="45.8837217" lon="4.565505"><ele>350.2</ele><time>2026-04-02T13:05:37.47Z</time></trkpt><trkpt lat="45.8836" lon="4.565465"><ele>350.0</ele><time>2026-04-02T13:05:38.47Z</time></trkpt><trkpt lat="45.883485" lon="4.5654283"><ele>349.8</ele><time>2026-04-02T13:05:39.47Z</time></trkpt><trkpt lat="45.883375" lon="4.5653983"><ele>349.6</ele><time>2026-04-02T13:05:40.47Z</time></trkpt><trkpt lat="45.883285" lon="4.5653633"><ele>349.4</ele><time>2026-04-02T13:05:41.47Z</time></trkpt><trkpt lat="45.88321" lon="4.5653283"><ele>349.2</ele><time>2026-04-02T13:05:42.47Z</time></trkpt><trkpt lat="45.8831467" lon="4.5653067"><ele>349.0</ele><time>2026-04-02T13:05:43.47Z</time></trkpt><trkpt lat="45.8830433" lon="4.5653383"><ele>347.79999999999995</ele><time>2026-04-02T13:05:45.47Z</time></trkpt><trkpt lat="45.8829817" lon="4.565465"><ele>346.59999999999997</ele><time>2026-04-02T13:05:47.47Z</time></trkpt><trkpt lat="45.88296" lon="4.5655883"><ele>345.4</ele><time>2026-04-02T13:05:48.47Z</time></trkpt><trkpt lat="45.88293" lon="4.5657333"><ele>344.2</ele><time>2026-04-02T13:05:49.47Z</time></trkpt><trkpt lat="45.88289" lon="4.5658717"><ele>343.0</ele><time>2026-04-02T13:05:50.47Z</time></trkpt><trkpt lat="45.8828217" lon="4.5660117"><ele>343.0</ele><time>2026-04-02T13:05:51.47Z</time></trkpt><trkpt lat="45.8827483" lon="4.56614"><ele>343.0</ele><time>2026-04-02T13:05:52.47Z</time></trkpt><trkpt lat="45.88266" lon="4.5662433"><ele>343.0</ele><time>2026-04-02T13:05:53.47Z</time></trkpt><trkpt lat="45.8825817" lon="4.5663333"><ele>343.0</ele><time>2026-04-02T13:05:54.47Z</time></trkpt><trkpt lat="45.88251" lon="4.56641"><ele>343.0</ele><time>2026-04-02T13:05:55.47Z</time></trkpt><trkpt lat="45.8824417" lon="4.5664767"><ele>341.79999999999995</ele><time>2026-04-02T13:05:56.47Z</time></trkpt><trkpt lat="45.8823717" lon="4.5665417"><ele>340.6</ele><time>2026-04-02T13:05:57.47Z</time></trkpt><trkpt lat="45.88231" lon="4.56661"><ele>339.4</ele><time>2026-04-02T13:05:58.47Z</time></trkpt><trkpt lat="45.8822567" lon="4.5667117"><ele>338.20000000000005</ele><time>2026-04-02T13:05:59.47Z</time></trkpt><trkpt lat="45.8822167" lon="4.566845"><ele>337.0</ele><time>2026-04-02T13:06:00.47Z</time></trkpt><trkpt lat="45.8821867" lon="4.566995"><ele>336.0</ele><time>2026-04-02T13:06:01.47Z</time></trkpt><trkpt lat="45.8821583" lon="4.5671467"><ele>335.0</ele><time>2026-04-02T13:06:02.47Z</time></trkpt><trkpt lat="45.8821333" lon="4.5673133"><ele>334.0</ele><time>2026-04-02T13:06:03.47Z</time></trkpt><trkpt lat="45.8821067" lon="4.567485"><ele>333.0</ele><time>2026-04-02T13:06:04.47Z</time></trkpt><trkpt lat="45.882075" lon="4.5676433"><ele>333.0</ele><time>2026-04-02T13:06:05.47Z</time></trkpt><trkpt lat="45.8820483" lon="4.5677817"><ele>333.0</ele><time>2026-04-02T13:06:06.47Z</time></trkpt><trkpt lat="45.882035" lon="4.5679083"><ele>333.0</ele><time>2026-04-02T13:06:07.47Z</time></trkpt><trkpt lat="45.8820267" lon="4.5680233"><ele>333.0</ele><time>2026-04-02T13:06:08.47Z</time></trkpt><trkpt lat="45.8820367" lon="4.56812"><ele>333.0</ele><time>2026-04-02T13:06:09.47Z</time></trkpt><trkpt lat="45.8820617" lon="4.5682117"><ele>333.0</ele><time>2026-04-02T13:06:10.47Z</time></trkpt><trkpt lat="45.8821167" lon="4.56831"><ele>333.5</ele><time>2026-04-02T13:06:11.47Z</time></trkpt><trkpt lat="45.8821833" lon="4.5684383"><ele>334.0</ele><time>2026-04-02T13:06:12.47Z</time></trkpt><trkpt lat="45.8822617" lon="4.5685917"><ele>334.5</ele><time>2026-04-02T13:06:13.469Z</time></trkpt><trkpt lat="45.8823333" lon="4.5687167"><ele>335.0</ele><time>2026-04-02T13:06:14.47Z</time></trkpt><trkpt lat="45.88239" lon="4.568855"><ele>334.25</ele><time>2026-04-02T13:06:15.47Z</time></trkpt><trkpt lat="45.8824667" lon="4.5690133"><ele>333.5</ele><time>2026-04-02T13:06:16.47Z</time></trkpt><trkpt lat="45.8825567" lon="4.5691633"><ele>332.75</ele><time>2026-04-02T13:06:17.47Z</time></trkpt><trkpt lat="45.8826367" lon="4.5692883"><ele>332.0</ele><time>2026-04-02T13:06:18.47Z</time></trkpt><trkpt lat="45.8827133" lon="4.5693867"><ele>332.0</ele><time>2026-04-02T13:06:19.47Z</time></trkpt><trkpt lat="45.8827817" lon="4.56948"><ele>332.0</ele><time>2026-04-02T13:06:20.47Z</time></trkpt><trkpt lat="45.8828417" lon="4.5695617"><ele>332.0</ele><time>2026-04-02T13:06:21.47Z</time></trkpt><trkpt lat="45.8828933" lon="4.56965"><ele>332.0</ele><time>2026-04-02T13:06:22.47Z</time></trkpt><trkpt lat="45.8829583" lon="4.5697467"><ele>332.0</ele><time>2026-04-02T13:06:23.47Z</time></trkpt><trkpt lat="45.8830333" lon="4.5698467"><ele>332.0</ele><time>2026-04-02T13:06:24.47Z</time></trkpt><trkpt lat="45.883105" lon="4.569945"><ele>332.0</ele><time>2026-04-02T13:06:25.47Z</time></trkpt><trkpt lat="45.88318" lon="4.5700433"><ele>332.0</ele><time>2026-04-02T13:06:26.47Z</time></trkpt><trkpt lat="45.88326" lon="4.5701433"><ele>332.0</ele><time>2026-04-02T13:06:27.47Z</time></trkpt><trkpt lat="45.8833533" lon="4.57027"><ele>332.0</ele><time>2026-04-02T13:06:28.47Z</time></trkpt><trkpt lat="45.883445" lon="4.5704067"><ele>332.0</ele><time>2026-04-02T13:06:29.47Z</time></trkpt><trkpt lat="45.8835317" lon="4.5705233"><ele>332.0</ele><time>2026-04-02T13:06:30.47Z</time></trkpt><trkpt lat="45.8836017" lon="4.5706367"><ele>332.0</ele><time>2026-04-02T13:06:31.47Z</time></trkpt><trkpt lat="45.883665" lon="4.5707517"><ele>332.0</ele><time>2026-04-02T13:06:32.47Z</time></trkpt><trkpt lat="45.8837217" lon="4.5708767"><ele>332.0</ele><time>2026-04-02T13:06:33.47Z</time></trkpt><trkpt lat="45.8837917" lon="4.5710033"><ele>332.0</ele><time>2026-04-02T13:06:34.47Z</time></trkpt><trkpt lat="45.8838583" lon="4.5711483"><ele>332.0</ele><time>2026-04-02T13:06:35.47Z</time></trkpt><trkpt lat="45.8839383" lon="4.5712917"><ele>332.0</ele><time>2026-04-02T13:06:36.47Z</time></trkpt><trkpt lat="45.884015" lon="4.571455"><ele>332.0</ele><time>2026-04-02T13:06:37.469Z</time></trkpt><trkpt lat="45.884085" lon="4.5716033"><ele>332.0</ele><time>2026-04-02T13:06:38.47Z</time></trkpt><trkpt lat="45.884145" lon="4.57174"><ele>332.0</ele><time>2026-04-02T13:06:39.47Z</time></trkpt><trkpt lat="45.884195" lon="4.5718983"><ele>332.0</ele><time>2026-04-02T13:06:40.47Z</time></trkpt><trkpt lat="45.88424" lon="4.5720833"><ele>332.0</ele><time>2026-04-02T13:06:41.47Z</time></trkpt><trkpt lat="45.8842833" lon="4.572295"><ele>330.75</ele><time>2026-04-02T13:06:42.47Z</time></trkpt><trkpt lat="45.8843233" lon="4.572505"><ele>329.5</ele><time>2026-04-02T13:06:43.47Z</time></trkpt><trkpt lat="45.88436" lon="4.5726767"><ele>328.25</ele><time>2026-04-02T13:06:44.47Z</time></trkpt><trkpt lat="45.8843917" lon="4.5728317"><ele>327.0</ele><time>2026-04-02T13:06:45.47Z</time></trkpt><trkpt lat="45.884415" lon="4.5729783"><ele>325.8333333333333</ele><time>2026-04-02T13:06:46.47Z</time></trkpt><trkpt lat="45.8844367" lon="4.573105"><ele>324.6666666666667</ele><time>2026-04-02T13:06:47.469Z</time></trkpt><trkpt lat="45.884465" lon="4.573215"><ele>323.5</ele><time>2026-04-02T13:06:48.47Z</time></trkpt><trkpt lat="45.8845033" lon="4.573325"><ele>322.33333333333337</ele><time>2026-04-02T13:06:49.47Z</time></trkpt><trkpt lat="45.884545" lon="4.5734233"><ele>321.1666666666667</ele><time>2026-04-02T13:06:50.47Z</time></trkpt><trkpt lat="45.8845933" lon="4.57352"><ele>320.0</ele><time>2026-04-02T13:06:51.47Z</time></trkpt><trkpt lat="45.8846583" lon="4.5736383"><ele>319.0</ele><time>2026-04-02T13:06:52.47Z</time></trkpt><trkpt lat="45.8847283" lon="4.5737633"><ele>318.0</ele><time>2026-04-02T13:06:53.47Z</time></trkpt><trkpt lat="45.884795" lon="4.5738733"><ele>317.0</ele><time>2026-04-02T13:06:54.469Z</time></trkpt><trkpt lat="45.8848567" lon="4.5739783"><ele>316.0</ele><time>2026-04-02T13:06:55.47Z</time></trkpt><trkpt lat="45.884915" lon="4.57408"><ele>315.0</ele><time>2026-04-02T13:06:56.47Z</time></trkpt><trkpt lat="45.8849733" lon="4.57417"><ele>315.0</ele><time>2026-04-02T13:06:57.47Z</time></trkpt><trkpt lat="45.8850267" lon="4.57425"><ele>315.0</ele><time>2026-04-02T13:06:58.47Z</time></trkpt><trkpt lat="45.8850833" lon="4.5743467"><ele>315.0</ele><time>2026-04-02T13:06:59.47Z</time></trkpt><trkpt lat="45.88516" lon="4.57448"><ele>315.0</ele><time>2026-04-02T13:07:00.47Z</time></trkpt><trkpt lat="45.8852367" lon="4.574605"><ele>315.0</ele><time>2026-04-02T13:07:01.47Z</time></trkpt><trkpt lat="45.885305" lon="4.5747133"><ele>312.4</ele><time>2026-04-02T13:07:02.47Z</time></trkpt><trkpt lat="45.8853717" lon="4.5748217"><ele>309.8</ele><time>2026-04-02T13:07:03.469Z</time></trkpt><trkpt lat="45.8854333" lon="4.5749333"><ele>307.2</ele><time>2026-04-02T13:07:04.47Z</time></trkpt><trkpt lat="45.8855017" lon="4.575045"><ele>304.6</ele><time>2026-04-02T13:07:05.47Z</time></trkpt><trkpt lat="45.8855683" lon="4.5751517"><ele>302.0</ele><time>2026-04-02T13:07:06.47Z</time></trkpt><trkpt lat="45.8856317" lon="4.5752483"><ele>302.0</ele><time>2026-04-02T13:07:07.47Z</time></trkpt><trkpt lat="45.885695" lon="4.575335"><ele>302.0</ele><time>2026-04-02T13:07:08.47Z</time></trkpt><trkpt lat="45.8857483" lon="4.5754183"><ele>302.0</ele><time>2026-04-02T13:07:09.47Z</time></trkpt><trkpt lat="45.8858033" lon="4.5755"><ele>302.0</ele><time>2026-04-02T13:07:10.47Z</time></trkpt><trkpt lat="45.8858483" lon="4.5755767"><ele>302.0</ele><time>2026-04-02T13:07:11.47Z</time></trkpt><trkpt lat="45.8859183" lon="4.575685"><ele>302.0</ele><time>2026-04-02T13:07:13.47Z</time></trkpt><trkpt lat="45.8860067" lon="4.5758067"><ele>302.1666666666667</ele><time>2026-04-02T13:07:15.47Z</time></trkpt><trkpt lat="45.886075" lon="4.5758783"><ele>302.33333333333337</ele><time>2026-04-02T13:07:16.47Z</time></trkpt><trkpt lat="45.8861533" lon="4.5759683"><ele>302.5</ele><time>2026-04-02T13:07:17.47Z</time></trkpt><trkpt lat="45.8862317" lon="4.5760467"><ele>302.6666666666667</ele><time>2026-04-02T13:07:18.47Z</time></trkpt><trkpt lat="45.8863" lon="4.5761167"><ele>302.8333333333333</ele><time>2026-04-02T13:07:19.47Z</time></trkpt><trkpt lat="45.8863617" lon="4.57616"><ele>303.0</ele><time>2026-04-02T13:07:20.47Z</time></trkpt><trkpt lat="45.8864167" lon="4.576235"><ele>302.1666666666667</ele><time>2026-04-02T13:07:22.47Z</time></trkpt><trkpt lat="45.8864567" lon="4.5763367"><ele>301.3333333333333</ele><time>2026-04-02T13:07:25.47Z</time></trkpt><trkpt lat="45.8865083" lon="4.5764267"><ele>300.5</ele><time>2026-04-02T13:07:28.469Z</time></trkpt><trkpt lat="45.8865583" lon="4.57653"><ele>299.66666666666663</ele><time>2026-04-02T13:07:31.47Z</time></trkpt><trkpt lat="45.8866333" lon="4.5766017"><ele>298.8333333333333</ele><time>2026-04-02T13:07:34.47Z</time></trkpt><trkpt lat="45.8867133" lon="4.576675"><ele>298.0</ele><time>2026-04-02T13:07:36.47Z</time></trkpt><trkpt lat="45.8867917" lon="4.5767333"><ele>298.0</ele><time>2026-04-02T13:07:38.47Z</time></trkpt><trkpt lat="45.8868583" lon="4.5767733"><ele>298.0</ele><time>2026-04-02T13:07:40.47Z</time></trkpt><trkpt lat="45.88692" lon="4.576815"><ele>298.0</ele><time>2026-04-02T13:07:43.47Z</time></trkpt><trkpt lat="45.886985" lon="4.5768733"><ele>298.0</ele><time>2026-04-02T13:07:46.47Z</time></trkpt><trkpt lat="45.8870617" lon="4.5769383"><ele>298.0</ele><time>2026-04-02T13:07:48.47Z</time></trkpt><trkpt lat="45.8871317" lon="4.5770033"><ele>298.0</ele><time>2026-04-02T13:07:51.47Z</time></trkpt><trkpt lat="45.8871983" lon="4.57705"><ele>296.6</ele><time>2026-04-02T13:07:55.47Z</time></trkpt><trkpt lat="45.8872833" lon="4.5770967"><ele>295.20000000000005</ele><time>2026-04-02T13:07:58.47Z</time></trkpt><trkpt lat="45.8873467" lon="4.57715"><ele>293.8</ele><time>2026-04-02T13:08:00.47Z</time></trkpt><trkpt lat="45.8874233" lon="4.5772267"><ele>292.40000000000003</ele><time>2026-04-02T13:08:02.47Z</time></trkpt><trkpt lat="45.8874917" lon="4.577315"><ele>291.0</ele><time>2026-04-02T13:08:04.47Z</time></trkpt><trkpt lat="45.8875667" lon="4.5774217"><ele>291.0</ele><time>2026-04-02T13:08:06.47Z</time></trkpt><trkpt lat="45.887635" lon="4.5775183"><ele>291.0</ele><time>2026-04-02T13:08:08.47Z</time></trkpt><trkpt lat="45.8877055" lon="4.5776417"><ele>291.0</ele><time>2026-04-02T13:08:10.469Z</time></trkpt><trkpt lat="45.8877715" lon="4.5777486"><ele>291.0</ele><time>2026-04-02T13:08:12.469Z</time></trkpt><trkpt lat="45.8878513" lon="4.577851"><ele>291.0</ele><time>2026-04-02T13:08:14.47Z</time></trkpt><trkpt lat="45.8879338" lon="4.5779523"><ele>291.0</ele><time>2026-04-02T13:08:16.47Z</time></trkpt><trkpt lat="45.8880169" lon="4.5780559"><ele>291.0</ele><time>2026-04-02T13:08:18.47Z</time></trkpt><trkpt lat="45.888065" lon="4.5781152"><ele>291.0</ele><time>2026-04-02T13:08:19.47Z</time></trkpt><trkpt lat="45.8881182" lon="4.5781721"><ele>291.0</ele><time>2026-04-02T13:08:20.47Z</time></trkpt><trkpt lat="45.8881749" lon="4.5782437"><ele>291.0</ele><time>2026-04-02T13:08:21.47Z</time></trkpt><trkpt lat="45.8882381" lon="4.5783206"><ele>291.0</ele><time>2026-04-02T13:08:22.47Z</time></trkpt><trkpt lat="45.8882845" lon="4.5783832"><ele>291.0</ele><time>2026-04-02T13:08:23.47Z</time></trkpt><trkpt lat="45.8883323" lon="4.5784655"><ele>291.0</ele><time>2026-04-02T13:08:25.47Z</time></trkpt><trkpt lat="45.8883881" lon="4.5785663"><ele>291.0</ele><time>2026-04-02T13:08:27.47Z</time></trkpt><trkpt lat="45.8884667" lon="4.5787"><ele>291.0</ele><time>2026-04-02T13:08:29.47Z</time></trkpt><trkpt lat="45.8885233" lon="4.5787983"><ele>291.0</ele><time>2026-04-02T13:08:31.47Z</time></trkpt><trkpt lat="45.8885717" lon="4.57886"><ele>291.0</ele><time>2026-04-02T13:08:33.47Z</time></trkpt><trkpt lat="45.8886433" lon="4.5788717"><ele>290.85714285714283</ele><time>2026-04-02T13:08:36.47Z</time></trkpt><trkpt lat="45.8887083" lon="4.578845"><ele>290.71428571428567</ele><time>2026-04-02T13:08:39.47Z</time></trkpt><trkpt lat="45.888775" lon="4.5788117"><ele>290.57142857142856</ele><time>2026-04-02T13:08:42.47Z</time></trkpt><trkpt lat="45.88884" lon="4.578765"><ele>290.42857142857144</ele><time>2026-04-02T13:08:46.47Z</time></trkpt><trkpt lat="45.888905" lon="4.5787267"><ele>290.28571428571433</ele><time>2026-04-02T13:08:49.47Z</time></trkpt><trkpt lat="45.888975" lon="4.5786633"><ele>290.14285714285717</ele><time>2026-04-02T13:08:52.47Z</time></trkpt><trkpt lat="45.8890383" lon="4.5786117"><ele>290.0</ele><time>2026-04-02T13:08:54.47Z</time></trkpt><trkpt lat="45.8891167" lon="4.57856"><ele>290.1666666666667</ele><time>2026-04-02T13:08:56.471Z</time></trkpt><trkpt lat="45.8891717" lon="4.5784933"><ele>290.33333333333337</ele><time>2026-04-02T13:08:58.471Z</time></trkpt><trkpt lat="45.889235" lon="4.578425"><ele>290.5</ele><time>2026-04-02T13:09:00.471Z</time></trkpt><trkpt lat="45.8892922" lon="4.5783606"><ele>290.6666666666667</ele><time>2026-04-02T13:09:02.494Z</time></trkpt><trkpt lat="45.8893636" lon="4.5782421"><ele>290.8333333333333</ele><time>2026-04-02T13:09:04.53Z</time></trkpt><trkpt lat="45.8894179" lon="4.5781793"><ele>291.0</ele><time>2026-04-02T13:09:05.47Z</time></trkpt><trkpt lat="45.8894765" lon="4.5780981"><ele>291.0</ele><time>2026-04-02T13:09:06.471Z</time></trkpt><trkpt lat="45.8895335" lon="4.5780118"><ele>291.0</ele><time>2026-04-02T13:09:07.471Z</time></trkpt><trkpt lat="45.8895909" lon="4.5779373"><ele>291.0</ele><time>2026-04-02T13:09:08.471Z</time></trkpt><trkpt lat="45.8896801" lon="4.5778502"><ele>291.0</ele><time>2026-04-02T13:09:10.471Z</time></trkpt><trkpt lat="45.8897651" lon="4.5778054"><ele>291.0</ele><time>2026-04-02T13:09:12.471Z</time></trkpt><trkpt lat="45.8898515" lon="4.5777716"><ele>291.0</ele><time>2026-04-02T13:09:14.471Z</time></trkpt><trkpt lat="45.8899563" lon="4.5777492"><ele>290.5</ele><time>2026-04-02T13:09:16.47Z</time></trkpt><trkpt lat="45.8900241" lon="4.577746"><ele>290.0</ele><time>2026-04-02T13:09:17.47Z</time></trkpt><trkpt lat="45.8900902" lon="4.5777427"><ele>289.5</ele><time>2026-04-02T13:09:18.471Z</time></trkpt><trkpt lat="45.8901616" lon="4.5777349"><ele>289.0</ele><time>2026-04-02T13:09:19.471Z</time></trkpt><trkpt lat="45.890227" lon="4.5777284"><ele>288.5</ele><time>2026-04-02T13:09:20.471Z</time></trkpt><trkpt lat="45.8903466" lon="4.5777309"><ele>288.0</ele><time>2026-04-02T13:09:22.471Z</time></trkpt><trkpt lat="45.8904504" lon="4.5777315"><ele>287.0</ele><time>2026-04-02T13:09:24.471Z</time></trkpt><trkpt lat="45.890516" lon="4.5777374"><ele>286.0</ele><time>2026-04-02T13:09:26.471Z</time></trkpt><trkpt lat="45.8905867" lon="4.5777217"><ele>285.0</ele><time>2026-04-02T13:09:30.471Z</time></trkpt><trkpt lat="45.8906683" lon="4.5778317"><ele>284.0</ele><time>2026-04-02T13:09:33.471Z</time></trkpt><trkpt lat="45.8907217" lon="4.57793"><ele>283.0</ele><time>2026-04-02T13:09:34.471Z</time></trkpt><trkpt lat="45.890765" lon="4.5780383"><ele>282.0</ele><time>2026-04-02T13:09:35.471Z</time></trkpt><trkpt lat="45.890815" lon="4.5781533"><ele>282.0</ele><time>2026-04-02T13:09:36.471Z</time></trkpt><trkpt lat="45.8908767" lon="4.5782933"><ele>282.0</ele><time>2026-04-02T13:09:37.471Z</time></trkpt><trkpt lat="45.8909233" lon="4.5784517"><ele>282.0</ele><time>2026-04-02T13:09:38.471Z</time></trkpt><trkpt lat="45.89096" lon="4.5785983"><ele>282.0</ele><time>2026-04-02T13:09:39.471Z</time></trkpt><trkpt lat="45.8909883" lon="4.57875"><ele>281.0</ele><time>2026-04-02T13:09:40.471Z</time></trkpt><trkpt lat="45.8910267" lon="4.5789283"><ele>280.0</ele><time>2026-04-02T13:09:41.47Z</time></trkpt><trkpt lat="45.8910883" lon="4.5791167"><ele>279.0</ele><time>2026-04-02T13:09:42.47Z</time></trkpt><trkpt lat="45.891135" lon="4.5792833"><ele>278.0</ele><time>2026-04-02T13:09:43.471Z</time></trkpt><trkpt lat="45.8911817" lon="4.579435"><ele>278.75</ele><time>2026-04-02T13:09:44.471Z</time></trkpt><trkpt lat="45.891235" lon="4.5795967"><ele>279.5</ele><time>2026-04-02T13:09:45.471Z</time></trkpt><trkpt lat="45.89129" lon="4.5797817"><ele>280.25</ele><time>2026-04-02T13:09:46.471Z</time></trkpt><trkpt lat="45.8913567" lon="4.579995"><ele>281.0</ele><time>2026-04-02T13:09:47.471Z</time></trkpt><trkpt lat="45.8914183" lon="4.5802217"><ele>281.75</ele><time>2026-04-02T13:09:48.47Z</time></trkpt><trkpt lat="45.8914783" lon="4.580425"><ele>282.5</ele><time>2026-04-02T13:09:49.471Z</time></trkpt><trkpt lat="45.8915317" lon="4.5806067"><ele>283.25</ele><time>2026-04-02T13:09:50.471Z</time></trkpt><trkpt lat="45.8915767" lon="4.5807667"><ele>284.0</ele><time>2026-04-02T13:09:51.471Z</time></trkpt><trkpt lat="45.8916167" lon="4.5809333"><ele>284.0</ele><time>2026-04-02T13:09:52.471Z</time></trkpt><trkpt lat="45.8916667" lon="4.581115"><ele>284.0</ele><time>2026-04-02T13:09:53.471Z</time></trkpt><trkpt lat="45.8917183" lon="4.5813217"><ele>284.0</ele><time>2026-04-02T13:09:54.471Z</time></trkpt><trkpt lat="45.8917733" lon="4.5815317"><ele>284.0</ele><time>2026-04-02T13:09:55.47Z</time></trkpt><trkpt lat="45.8918167" lon="4.5817117"><ele>284.0</ele><time>2026-04-02T13:09:56.471Z</time></trkpt><trkpt lat="45.8918583" lon="4.58185"><ele>284.0</ele><time>2026-04-02T13:09:57.471Z</time></trkpt><trkpt lat="45.89189" lon="4.5819733"><ele>284.0</ele><time>2026-04-02T13:09:58.471Z</time></trkpt><trkpt lat="45.8919117" lon="4.582075"><ele>284.0</ele><time>2026-04-02T13:09:59.471Z</time></trkpt><trkpt lat="45.8919367" lon="4.5821683"><ele>284.0</ele><time>2026-04-02T13:10:00.471Z</time></trkpt><trkpt lat="45.8919583" lon="4.5822767"><ele>284.0</ele><time>2026-04-02T13:10:01.471Z</time></trkpt><trkpt lat="45.8919833" lon="4.5823967"><ele>283.6666666666667</ele><time>2026-04-02T13:10:02.471Z</time></trkpt><trkpt lat="45.89201" lon="4.5825083"><ele>283.33333333333337</ele><time>2026-04-02T13:10:03.471Z</time></trkpt><trkpt lat="45.8920317" lon="4.5826033"><ele>283.0</ele><time>2026-04-02T13:10:04.47Z</time></trkpt><trkpt lat="45.89205" lon="4.58269"><ele>282.6666666666667</ele><time>2026-04-02T13:10:05.471Z</time></trkpt><trkpt lat="45.8920967" lon="4.58285"><ele>282.3333333333333</ele><time>2026-04-02T13:10:07.47Z</time></trkpt><trkpt lat="45.892115" lon="4.5829733"><ele>282.0</ele><time>2026-04-02T13:10:09.471Z</time></trkpt><trkpt lat="45.8920769" lon="4.5830702"><ele>281.8333333333333</ele><time>2026-04-02T13:10:11.471Z</time></trkpt><trkpt lat="45.8919829" lon="4.5831014"><ele>281.6666666666667</ele><time>2026-04-02T13:10:13.471Z</time></trkpt><trkpt lat="45.8918965" lon="4.583045"><ele>281.5</ele><time>2026-04-02T13:10:15.471Z</time></trkpt><trkpt lat="45.8918274" lon="4.5829621"><ele>281.33333333333337</ele><time>2026-04-02T13:10:17.471Z</time></trkpt><trkpt lat="45.8917552" lon="4.5828719"><ele>281.1666666666667</ele><time>2026-04-02T13:10:19.47Z</time></trkpt><trkpt lat="45.8917024" lon="4.5828094"><ele>281.0</ele><time>2026-04-02T13:10:21.471Z</time></trkpt><trkpt lat="45.8915833" lon="4.5827433"><ele>281.40000000000003</ele><time>2026-04-02T13:10:52.471Z</time></trkpt><trkpt lat="45.8914435" lon="4.5825796"><ele>281.8</ele><time>2026-04-02T13:12:26.471Z</time></trkpt><trkpt lat="45.8913793" lon="4.5825052"><ele>282.20000000000005</ele><time>2026-04-02T13:12:27.471Z</time></trkpt><trkpt lat="45.8913121" lon="4.5824346"><ele>282.6</ele><time>2026-04-02T13:12:28.471Z</time></trkpt><trkpt lat="45.8912439" lon="4.582359"><ele>283.0</ele><time>2026-04-02T13:12:29.47Z</time></trkpt><trkpt lat="45.891182" lon="4.5822877"><ele>283.0</ele><time>2026-04-02T13:12:30.47Z</time></trkpt><trkpt lat="45.8911292" lon="4.5822239"><ele>283.0</ele><time>2026-04-02T13:12:31.471Z</time></trkpt><trkpt lat="45.8910443" lon="4.5821203"><ele>283.0</ele><time>2026-04-02T13:12:33.471Z</time></trkpt><trkpt lat="45.8909933" lon="4.5820591"><ele>283.0</ele><time>2026-04-02T13:12:34.471Z</time></trkpt><trkpt lat="45.8909282" lon="4.5819899"><ele>283.0</ele><time>2026-04-02T13:12:35.471Z</time></trkpt><trkpt lat="45.8908689" lon="4.5819283"><ele>283.0</ele><time>2026-04-02T13:12:36.471Z</time></trkpt><trkpt lat="45.8907792" lon="4.5818285"><ele>283.2</ele><time>2026-04-02T13:12:38.471Z</time></trkpt><trkpt lat="45.8907251" lon="4.5817705"><ele>283.4</ele><time>2026-04-02T13:12:39.471Z</time></trkpt><trkpt lat="45.8906366" lon="4.5816784"><ele>283.59999999999997</ele><time>2026-04-02T13:12:41.471Z</time></trkpt><trkpt lat="45.89056" lon="4.5816033"><ele>283.8</ele><time>2026-04-02T13:12:43.471Z</time></trkpt><trkpt lat="45.8904867" lon="4.5815333"><ele>284.0</ele><time>2026-04-02T13:12:45.47Z</time></trkpt><trkpt lat="45.89037" lon="4.58141"><ele>284.0</ele><time>2026-04-02T13:12:47.471Z</time></trkpt><trkpt lat="45.890295" lon="4.5813383"><ele>284.0</ele><time>2026-04-02T13:12:48.47Z</time></trkpt><trkpt lat="45.8902283" lon="4.581275"><ele>284.0</ele><time>2026-04-02T13:12:49.471Z</time></trkpt><trkpt lat="45.89017" lon="4.5812233"><ele>284.0</ele><time>2026-04-02T13:12:50.471Z</time></trkpt><trkpt lat="45.890075" lon="4.5811267"><ele>284.0</ele><time>2026-04-02T13:12:52.471Z</time></trkpt><trkpt lat="45.890015" lon="4.5810667"><ele>284.0</ele><time>2026-04-02T13:12:53.47Z</time></trkpt><trkpt lat="45.8899333" lon="4.5809833"><ele>284.2</ele><time>2026-04-02T13:12:54.471Z</time></trkpt><trkpt lat="45.88985" lon="4.580905"><ele>284.4</ele><time>2026-04-02T13:12:55.471Z</time></trkpt><trkpt lat="45.8897833" lon="4.580845"><ele>284.6</ele><time>2026-04-02T13:12:56.471Z</time></trkpt><trkpt lat="45.8896967" lon="4.58075"><ele>284.8</ele><time>2026-04-02T13:12:58.471Z</time></trkpt><trkpt lat="45.889615" lon="4.5806683"><ele>285.0</ele><time>2026-04-02T13:13:00.471Z</time></trkpt><trkpt lat="45.889525" lon="4.5805983"><ele>285.0</ele><time>2026-04-02T13:13:02.471Z</time></trkpt><trkpt lat="45.8894433" lon="4.5805633"><ele>285.0</ele><time>2026-04-02T13:13:04.471Z</time></trkpt><trkpt lat="45.8893567" lon="4.58054"><ele>285.0</ele><time>2026-04-02T13:13:06.471Z</time></trkpt><trkpt lat="45.8892633" lon="4.5804867"><ele>285.0</ele><time>2026-04-02T13:13:08.471Z</time></trkpt><trkpt lat="45.88915" lon="4.5804133"><ele>285.0</ele><time>2026-04-02T13:13:10.471Z</time></trkpt><trkpt lat="45.8890933" lon="4.5803717"><ele>285.8</ele><time>2026-04-02T13:13:11.471Z</time></trkpt><trkpt lat="45.8889883" lon="4.5802733"><ele>286.6</ele><time>2026-04-02T13:13:13.471Z</time></trkpt><trkpt lat="45.8889217" lon="4.5802117"><ele>287.4</ele><time>2026-04-02T13:13:14.471Z</time></trkpt><trkpt lat="45.888855" lon="4.58014"><ele>288.2</ele><time>2026-04-02T13:13:15.471Z</time></trkpt><trkpt lat="45.888785" lon="4.58006"><ele>289.0</ele><time>2026-04-02T13:13:16.471Z</time></trkpt><trkpt lat="45.8887067" lon="4.57997"><ele>289.0</ele><time>2026-04-02T13:13:17.47Z</time></trkpt><trkpt lat="45.888625" lon="4.579865"><ele>289.0</ele><time>2026-04-02T13:13:18.471Z</time></trkpt><trkpt lat="45.8885733" lon="4.579795"><ele>289.0</ele><time>2026-04-02T13:13:19.471Z</time></trkpt><trkpt lat="45.8885233" lon="4.5797183"><ele>289.0</ele><time>2026-04-02T13:13:20.47Z</time></trkpt><trkpt lat="45.88848" lon="4.5796417"><ele>289.0</ele><time>2026-04-02T13:13:21.47Z</time></trkpt><trkpt lat="45.8884267" lon="4.5795617"><ele>289.0</ele><time>2026-04-02T13:13:22.471Z</time></trkpt><trkpt lat="45.8883833" lon="4.57949"><ele>289.16666666666663</ele><time>2026-04-02T13:13:23.471Z</time></trkpt><trkpt lat="45.8883367" lon="4.5793717"><ele>289.3333333333333</ele><time>2026-04-02T13:13:25.471Z</time></trkpt><trkpt lat="45.8883633" lon="4.5792683"><ele>289.5</ele><time>2026-04-02T13:13:27.47Z</time></trkpt><trkpt lat="45.8884217" lon="4.5791767"><ele>289.6666666666667</ele><time>2026-04-02T13:13:29.471Z</time></trkpt><trkpt lat="45.8884683" lon="4.5791133"><ele>289.83333333333337</ele><time>2026-04-02T13:13:30.471Z</time></trkpt><trkpt lat="45.8885283" lon="4.57904"><ele>290.0</ele><time>2026-04-02T13:13:31.471Z</time></trkpt><trkpt lat="45.8886" lon="4.5789483"><ele>290.0</ele><time>2026-04-02T13:13:33.47Z</time></trkpt><trkpt lat="45.8886967" lon="4.5788767"><ele>290.0</ele><time>2026-04-02T13:13:35.471Z</time></trkpt><trkpt lat="45.88877" lon="4.5788283"><ele>290.0</ele><time>2026-04-02T13:13:36.471Z</time></trkpt><trkpt lat="45.8888483" lon="4.5787783"><ele>290.0</ele><time>2026-04-02T13:13:37.47Z</time></trkpt><trkpt lat="45.8889117" lon="4.5787317"><ele>290.0</ele><time>2026-04-02T13:13:38.471Z</time></trkpt><trkpt lat="45.8890017" lon="4.5786383"><ele>290.2</ele><time>2026-04-02T13:13:40.471Z</time></trkpt><trkpt lat="45.889095" lon="4.57854"><ele>290.4</ele><time>2026-04-02T13:13:42.471Z</time></trkpt><trkpt lat="45.8891833" lon="4.5784467"><ele>290.6</ele><time>2026-04-02T13:13:44.47Z</time></trkpt><trkpt lat="45.889255" lon="4.5783617"><ele>290.8</ele><time>2026-04-02T13:13:46.471Z</time></trkpt><trkpt lat="45.8893117" lon="4.5782833"><ele>291.0</ele><time>2026-04-02T13:13:48.471Z</time></trkpt><trkpt lat="45.8893667" lon="4.5782067"><ele>291.0</ele><time>2026-04-02T13:13:50.471Z</time></trkpt><trkpt lat="45.889445" lon="4.5780883"><ele>291.0</ele><time>2026-04-02T13:13:52.471Z</time></trkpt><trkpt lat="45.8894983" lon="4.5780217"><ele>291.0</ele><time>2026-04-02T13:13:53.471Z</time></trkpt><trkpt lat="45.8895833" lon="4.5779217"><ele>291.0</ele><time>2026-04-02T13:13:55.471Z</time></trkpt><trkpt lat="45.8896367" lon="4.5778533"><ele>291.0</ele><time>2026-04-02T13:13:57.471Z</time></trkpt><trkpt lat="45.8897" lon="4.57781"><ele>291.0</ele><time>2026-04-02T13:13:59.471Z</time></trkpt><trkpt lat="45.889765" lon="4.577775"><ele>290.5</ele><time>2026-04-02T13:14:01.471Z</time></trkpt><trkpt lat="45.889845" lon="4.5777633"><ele>290.0</ele><time>2026-04-02T13:14:03.471Z</time></trkpt><trkpt lat="45.8899333" lon="4.5777567"><ele>289.5</ele><time>2026-04-02T13:14:06.471Z</time></trkpt><trkpt lat="45.8900117" lon="4.5777517"><ele>289.0</ele><time>2026-04-02T13:14:09.471Z</time></trkpt><trkpt lat="45.8901217" lon="4.5777267"><ele>288.5</ele><time>2026-04-02T13:14:51.47Z</time></trkpt><trkpt lat="45.8902117" lon="4.5777367"><ele>288.0</ele><time>2026-04-02T13:14:54.47Z</time></trkpt><trkpt lat="45.890315" lon="4.5777317"><ele>287.0</ele><time>2026-04-02T13:14:56.471Z</time></trkpt><trkpt lat="45.890415" lon="4.5777333"><ele>286.0</ele><time>2026-04-02T13:14:58.471Z</time></trkpt><trkpt lat="45.8904783" lon="4.5777267"><ele>285.0</ele><time>2026-04-02T13:15:00.471Z</time></trkpt><trkpt lat="45.890555" lon="4.5777117"><ele>284.0</ele><time>2026-04-02T13:15:03.47Z</time></trkpt><trkpt lat="45.8906433" lon="4.5778317"><ele>283.0</ele><time>2026-04-02T13:15:06.471Z</time></trkpt><trkpt lat="45.890685" lon="4.5779017"><ele>282.0</ele><time>2026-04-02T13:15:07.471Z</time></trkpt><trkpt lat="45.8907467" lon="4.5780183"><ele>282.0</ele><time>2026-04-02T13:15:09.471Z</time></trkpt><trkpt lat="45.8908167" lon="4.5781533"><ele>282.0</ele><time>2026-04-02T13:15:11.471Z</time></trkpt><trkpt lat="45.8908617" lon="4.5782717"><ele>282.0</ele><time>2026-04-02T13:15:12.471Z</time></trkpt><trkpt lat="45.8909117" lon="4.5784333"><ele>282.0</ele><time>2026-04-02T13:15:13.471Z</time></trkpt><trkpt lat="45.8909583" lon="4.57862"><ele>281.0</ele><time>2026-04-02T13:15:14.471Z</time></trkpt><trkpt lat="45.8910067" lon="4.57879"><ele>280.0</ele><time>2026-04-02T13:15:15.471Z</time></trkpt><trkpt lat="45.8910617" lon="4.5789817"><ele>279.0</ele><time>2026-04-02T13:15:16.471Z</time></trkpt><trkpt lat="45.8911183" lon="4.579205"><ele>278.0</ele><time>2026-04-02T13:15:17.471Z</time></trkpt><trkpt lat="45.891185" lon="4.5794483"><ele>278.75</ele><time>2026-04-02T13:15:18.47Z</time></trkpt><trkpt lat="45.89126" lon="4.5796767"><ele>279.5</ele><time>2026-04-02T13:15:19.471Z</time></trkpt><trkpt lat="45.8913183" lon="4.5798683"><ele>280.25</ele><time>2026-04-02T13:15:20.471Z</time></trkpt><trkpt lat="45.8913683" lon="4.5800367"><ele>281.0</ele><time>2026-04-02T13:15:21.47Z</time></trkpt><trkpt lat="45.891405" lon="4.580175"><ele>281.0</ele><time>2026-04-02T13:15:22.471Z</time></trkpt><trkpt lat="45.8914383" lon="4.5802933"><ele>281.0</ele><time>2026-04-02T13:15:23.471Z</time></trkpt><trkpt lat="45.891465" lon="4.5804267"><ele>281.0</ele><time>2026-04-02T13:15:24.471Z</time></trkpt><trkpt lat="45.8915067" lon="4.5805883"><ele>281.0</ele><time>2026-04-02T13:15:25.471Z</time></trkpt><trkpt lat="45.8915583" lon="4.5807883"><ele>281.75</ele><time>2026-04-02T13:15:26.471Z</time></trkpt><trkpt lat="45.8916233" lon="4.58101"><ele>282.5</ele><time>2026-04-02T13:15:27.471Z</time></trkpt><trkpt lat="45.8916783" lon="4.581205"><ele>283.25</ele><time>2026-04-02T13:15:28.471Z</time></trkpt><trkpt lat="45.89172" lon="4.58136"><ele>284.0</ele><time>2026-04-02T13:15:29.471Z</time></trkpt><trkpt lat="45.8917583" lon="4.5814883"><ele>284.0</ele><time>2026-04-02T13:15:30.471Z</time></trkpt><trkpt lat="45.8917883" lon="4.5815933"><ele>284.0</ele><time>2026-04-02T13:15:31.471Z</time></trkpt><trkpt lat="45.8918133" lon="4.5816983"><ele>284.0</ele><time>2026-04-02T13:15:32.471Z</time></trkpt><trkpt lat="45.8918433" lon="4.5818067"><ele>284.0</ele><time>2026-04-02T13:15:33.471Z</time></trkpt><trkpt lat="45.891875" lon="4.5819183"><ele>284.0</ele><time>2026-04-02T13:15:34.471Z</time></trkpt><trkpt lat="45.891905" lon="4.5820167"><ele>284.0</ele><time>2026-04-02T13:15:35.471Z</time></trkpt><trkpt lat="45.891925" lon="4.5821083"><ele>283.6666666666667</ele><time>2026-04-02T13:15:36.471Z</time></trkpt><trkpt lat="45.8919367" lon="4.5822417"><ele>283.33333333333337</ele><time>2026-04-02T13:15:38.471Z</time></trkpt><trkpt lat="45.8919317" lon="4.5823567"><ele>283.0</ele><time>2026-04-02T13:15:41.471Z</time></trkpt><trkpt lat="45.8919967" lon="4.5823467"><ele>282.6666666666667</ele><time>2026-04-02T13:15:47.471Z</time></trkpt><trkpt lat="45.8919717" lon="4.582225"><ele>282.3333333333333</ele><time>2026-04-02T13:15:49.471Z</time></trkpt><trkpt lat="45.89195" lon="4.58214"><ele>282.0</ele><time>2026-04-02T13:15:50.471Z</time></trkpt><trkpt lat="45.8919083" lon="4.5820433"><ele>282.4</ele><time>2026-04-02T13:15:52.471Z</time></trkpt><trkpt lat="45.8918717" lon="4.581955"><ele>282.79999999999995</ele><time>2026-04-02T13:15:55.471Z</time></trkpt><trkpt lat="45.8918483" lon="4.5818183"><ele>283.2</ele><time>2026-04-02T13:15:57.471Z</time></trkpt><trkpt lat="45.8918283" lon="4.5817033"><ele>283.59999999999997</ele><time>2026-04-02T13:15:58.471Z</time></trkpt><trkpt lat="45.8918" lon="4.581585"><ele>284.0</ele><time>2026-04-02T13:15:59.471Z</time></trkpt><trkpt lat="45.891755" lon="4.5814367"><ele>284.0</ele><time>2026-04-02T13:16:00.471Z</time></trkpt><trkpt lat="45.8916983" lon="4.5812333"><ele>284.0</ele><time>2026-04-02T13:16:01.471Z</time></trkpt><trkpt lat="45.8916467" lon="4.5810367"><ele>284.0</ele><time>2026-04-02T13:16:02.471Z</time></trkpt><trkpt lat="45.8915933" lon="4.5808333"><ele>284.0</ele><time>2026-04-02T13:16:03.471Z</time></trkpt><trkpt lat="45.89154" lon="4.580615"><ele>284.0</ele><time>2026-04-02T13:16:04.471Z</time></trkpt><trkpt lat="45.891478" lon="4.5803844"><ele>284.0</ele><time>2026-04-02T13:16:05.471Z</time></trkpt><trkpt lat="45.8914114" lon="4.5801612"><ele>283.25</ele><time>2026-04-02T13:16:06.471Z</time></trkpt><trkpt lat="45.8913522" lon="4.5799565"><ele>282.5</ele><time>2026-04-02T13:16:07.471Z</time></trkpt><trkpt lat="45.8912985" lon="4.5797705"><ele>281.75</ele><time>2026-04-02T13:16:08.471Z</time></trkpt><trkpt lat="45.8912438" lon="4.5796001"><ele>281.0</ele><time>2026-04-02T13:16:09.471Z</time></trkpt><trkpt lat="45.8911884" lon="4.5794136"><ele>280.25</ele><time>2026-04-02T13:16:10.471Z</time></trkpt><trkpt lat="45.8911359" lon="4.5792213"><ele>279.5</ele><time>2026-04-02T13:16:11.471Z</time></trkpt><trkpt lat="45.8910917" lon="4.579048"><ele>278.75</ele><time>2026-04-02T13:16:12.471Z</time></trkpt><trkpt lat="45.8910501" lon="4.5789013"><ele>278.0</ele><time>2026-04-02T13:16:13.471Z</time></trkpt><trkpt lat="45.8910129" lon="4.5787677"><ele>277.5</ele><time>2026-04-02T13:16:14.471Z</time></trkpt><trkpt lat="45.8909812" lon="4.5786535"><ele>277.0</ele><time>2026-04-02T13:16:15.47Z</time></trkpt><trkpt lat="45.8909555" lon="4.5785641"><ele>276.5</ele><time>2026-04-02T13:16:16.471Z</time></trkpt><trkpt lat="45.8909261" lon="4.5784341"><ele>276.0</ele><time>2026-04-02T13:16:18.471Z</time></trkpt><trkpt lat="45.8909133" lon="4.5783333"><ele>275.5</ele><time>2026-04-02T13:16:20.47Z</time></trkpt><trkpt lat="45.89089" lon="4.5782217"><ele>275.0</ele><time>2026-04-02T13:16:22.471Z</time></trkpt><trkpt lat="45.8908633" lon="4.578135"><ele>275.6</ele><time>2026-04-02T13:16:23.471Z</time></trkpt><trkpt lat="45.8908267" lon="4.5780283"><ele>276.2</ele><time>2026-04-02T13:16:24.471Z</time></trkpt><trkpt lat="45.8907917" lon="4.5779233"><ele>276.8</ele><time>2026-04-02T13:16:25.471Z</time></trkpt><trkpt lat="45.89075" lon="4.57777"><ele>277.4</ele><time>2026-04-02T13:16:27.471Z</time></trkpt><trkpt lat="45.8907533" lon="4.5776333"><ele>278.0</ele><time>2026-04-02T13:16:29.471Z</time></trkpt><trkpt lat="45.8908083" lon="4.5775033"><ele>278.0</ele><time>2026-04-02T13:16:31.471Z</time></trkpt><trkpt lat="45.8908567" lon="4.5774217"><ele>278.0</ele><time>2026-04-02T13:16:32.471Z</time></trkpt><trkpt lat="45.8909217" lon="4.57732"><ele>278.0</ele><time>2026-04-02T13:16:33.471Z</time></trkpt><trkpt lat="45.8909867" lon="4.5772233"><ele>278.0</ele><time>2026-04-02T13:16:34.471Z</time></trkpt><trkpt lat="45.8910567" lon="4.5771133"><ele>278.0</ele><time>2026-04-02T13:16:35.471Z</time></trkpt><trkpt lat="45.8911267" lon="4.5769967"><ele>277.2</ele><time>2026-04-02T13:16:36.471Z</time></trkpt><trkpt lat="45.89118" lon="4.5769067"><ele>276.4</ele><time>2026-04-02T13:16:37.471Z</time></trkpt><trkpt lat="45.89124" lon="4.5768183"><ele>275.59999999999997</ele><time>2026-04-02T13:16:38.471Z</time></trkpt><trkpt lat="45.8912883" lon="4.5767183"><ele>274.8</ele><time>2026-04-02T13:16:39.471Z</time></trkpt><trkpt lat="45.89134" lon="4.5765883"><ele>274.0</ele><time>2026-04-02T13:16:40.471Z</time></trkpt><trkpt lat="45.8913867" lon="4.5764667"><ele>274.0</ele><time>2026-04-02T13:16:41.47Z</time></trkpt><trkpt lat="45.891425" lon="4.5763483"><ele>274.0</ele><time>2026-04-02T13:16:42.471Z</time></trkpt><trkpt lat="45.8914567" lon="4.57622"><ele>274.0</ele><time>2026-04-02T13:16:43.471Z</time></trkpt><trkpt lat="45.8914817" lon="4.5760533"><ele>274.0</ele><time>2026-04-02T13:16:44.471Z</time></trkpt><trkpt lat="45.891505" lon="4.5758883"><ele>274.0</ele><time>2026-04-02T13:16:45.471Z</time></trkpt><trkpt lat="45.8915333" lon="4.57573"><ele>274.25</ele><time>2026-04-02T13:16:46.471Z</time></trkpt><trkpt lat="45.89157" lon="4.57557"><ele>274.5</ele><time>2026-04-02T13:16:47.471Z</time></trkpt><trkpt lat="45.8916167" lon="4.5754"><ele>274.75</ele><time>2026-04-02T13:16:48.471Z</time></trkpt><trkpt lat="45.8916783" lon="4.575235"><ele>275.0</ele><time>2026-04-02T13:16:49.471Z</time></trkpt><trkpt lat="45.89173" lon="4.5750983"><ele>276.4</ele><time>2026-04-02T13:16:50.471Z</time></trkpt><trkpt lat="45.8917817" lon="4.5749767"><ele>277.8</ele><time>2026-04-02T13:16:51.471Z</time></trkpt><trkpt lat="45.8918367" lon="4.5748417"><ele>279.2</ele><time>2026-04-02T13:16:52.471Z</time></trkpt><trkpt lat="45.8918883" lon="4.5747067"><ele>280.6</ele><time>2026-04-02T13:16:53.471Z</time></trkpt><trkpt lat="45.891945" lon="4.5745833"><ele>282.0</ele><time>2026-04-02T13:16:54.47Z</time></trkpt><trkpt lat="45.8920067" lon="4.5744483"><ele>283.0</ele><time>2026-04-02T13:16:55.471Z</time></trkpt><trkpt lat="45.892065" lon="4.5742983"><ele>284.0</ele><time>2026-04-02T13:16:56.47Z</time></trkpt><trkpt lat="45.8921183" lon="4.5741333"><ele>285.0</ele><time>2026-04-02T13:16:57.471Z</time></trkpt><trkpt lat="45.8921667" lon="4.5739917"><ele>286.0</ele><time>2026-04-02T13:16:58.471Z</time></trkpt><trkpt lat="45.8922233" lon="4.57385"><ele>286.0</ele><time>2026-04-02T13:16:59.471Z</time></trkpt><trkpt lat="45.8922917" lon="4.5736983"><ele>286.0</ele><time>2026-04-02T13:17:00.471Z</time></trkpt><trkpt lat="45.89238" lon="4.5735533"><ele>286.0</ele><time>2026-04-02T13:17:01.471Z</time></trkpt><trkpt lat="45.8924733" lon="4.57342"><ele>286.0</ele><time>2026-04-02T13:17:02.471Z</time></trkpt><trkpt lat="45.8925467" lon="4.5733183"><ele>287.8</ele><time>2026-04-02T13:17:03.471Z</time></trkpt><trkpt lat="45.8926133" lon="4.5732417"><ele>289.6</ele><time>2026-04-02T13:17:04.471Z</time></trkpt><trkpt lat="45.8926883" lon="4.5731533"><ele>291.4</ele><time>2026-04-02T13:17:05.471Z</time></trkpt><trkpt lat="45.892765" lon="4.57306"><ele>293.2</ele><time>2026-04-02T13:17:06.471Z</time></trkpt><trkpt lat="45.892845" lon="4.5729767"><ele>295.0</ele><time>2026-04-02T13:17:07.471Z</time></trkpt><trkpt lat="45.8929167" lon="4.5729033"><ele>295.16666666666663</ele><time>2026-04-02T13:17:08.471Z</time></trkpt><trkpt lat="45.8929767" lon="4.5728417"><ele>295.3333333333333</ele><time>2026-04-02T13:17:09.471Z</time></trkpt><trkpt lat="45.89303" lon="4.5727817"><ele>295.5</ele><time>2026-04-02T13:17:10.471Z</time></trkpt><trkpt lat="45.893085" lon="4.5727217"><ele>295.6666666666667</ele><time>2026-04-02T13:17:11.471Z</time></trkpt><trkpt lat="45.8931417" lon="4.572665"><ele>295.83333333333337</ele><time>2026-04-02T13:17:12.471Z</time></trkpt><trkpt lat="45.8932367" lon="4.5725533"><ele>296.0</ele><time>2026-04-02T13:17:14.471Z</time></trkpt><trkpt lat="45.893295" lon="4.5724833"><ele>296.0</ele><time>2026-04-02T13:17:15.471Z</time></trkpt><trkpt lat="45.8933583" lon="4.5723983"><ele>296.0</ele><time>2026-04-02T13:17:16.471Z</time></trkpt><trkpt lat="45.89342" lon="4.572305"><ele>296.0</ele><time>2026-04-02T13:17:17.471Z</time></trkpt><trkpt lat="45.8934767" lon="4.57221"><ele>296.0</ele><time>2026-04-02T13:17:18.471Z</time></trkpt><trkpt lat="45.8935317" lon="4.5721033"><ele>296.0</ele><time>2026-04-02T13:17:19.471Z</time></trkpt><trkpt lat="45.89358" lon="4.5720017"><ele>296.0</ele><time>2026-04-02T13:17:20.471Z</time></trkpt><trkpt lat="45.8936167" lon="4.5719233"><ele>296.33333333333337</ele><time>2026-04-02T13:17:21.471Z</time></trkpt><trkpt lat="45.8936683" lon="4.5718017"><ele>296.6666666666667</ele><time>2026-04-02T13:17:23.471Z</time></trkpt><trkpt lat="45.8937067" lon="4.5717233"><ele>297.0</ele><time>2026-04-02T13:17:25.471Z</time></trkpt><trkpt lat="45.8937817" lon="4.5715967"><ele>297.3333333333333</ele><time>2026-04-02T13:17:37.471Z</time></trkpt><trkpt lat="45.8938233" lon="4.5715267"><ele>297.66666666666663</ele><time>2026-04-02T13:17:39.471Z</time></trkpt><trkpt lat="45.8938933" lon="4.5714167"><ele>298.0</ele><time>2026-04-02T13:17:41.471Z</time></trkpt><trkpt lat="45.89394" lon="4.5713383"><ele>298.0</ele><time>2026-04-02T13:17:42.471Z</time></trkpt><trkpt lat="45.8939917" lon="4.5712583"><ele>298.0</ele><time>2026-04-02T13:17:43.471Z</time></trkpt><trkpt lat="45.8940317" lon="4.5711883"><ele>298.0</ele><time>2026-04-02T13:17:44.471Z</time></trkpt><trkpt lat="45.8940817" lon="4.5710917"><ele>298.0</ele><time>2026-04-02T13:17:46.471Z</time></trkpt><trkpt lat="45.89416" lon="4.5709717"><ele>298.0</ele><time>2026-04-02T13:17:48.471Z</time></trkpt><trkpt lat="45.8942333" lon="4.57088"><ele>298.0</ele><time>2026-04-02T13:17:49.471Z</time></trkpt><trkpt lat="45.894325" lon="4.5707817"><ele>299.16666666666663</ele><time>2026-04-02T13:17:50.471Z</time></trkpt><trkpt lat="45.8944067" lon="4.5707"><ele>300.3333333333333</ele><time>2026-04-02T13:17:51.471Z</time></trkpt><trkpt lat="45.8944683" lon="4.5706467"><ele>301.5</ele><time>2026-04-02T13:17:52.471Z</time></trkpt><trkpt lat="45.8945517" lon="4.57057"><ele>302.6666666666667</ele><time>2026-04-02T13:17:54.471Z</time></trkpt><trkpt lat="45.8946133" lon="4.5705017"><ele>303.83333333333337</ele><time>2026-04-02T13:17:56.471Z</time></trkpt><trkpt lat="45.894675" lon="4.5704467"><ele>305.0</ele><time>2026-04-02T13:17:58.471Z</time></trkpt><trkpt lat="45.89473" lon="4.5703933"><ele>305.6</ele><time>2026-04-02T13:18:01.471Z</time></trkpt><trkpt lat="45.894735" lon="4.5702917"><ele>306.2</ele><time>2026-04-02T13:18:04.471Z</time></trkpt><trkpt lat="45.8946733" lon="4.5702217"><ele>306.8</ele><time>2026-04-02T13:18:06.47Z</time></trkpt><trkpt lat="45.8945683" lon="4.5701917"><ele>307.4</ele><time>2026-04-02T13:18:08.471Z</time></trkpt><trkpt lat="45.8944417" lon="4.5701567"><ele>308.0</ele><time>2026-04-02T13:18:10.471Z</time></trkpt><trkpt lat="45.8943433" lon="4.5701367"><ele>307.1666666666667</ele><time>2026-04-02T13:18:11.471Z</time></trkpt><trkpt lat="45.8942383" lon="4.5701133"><ele>306.33333333333337</ele><time>2026-04-02T13:18:12.471Z</time></trkpt><trkpt lat="45.8941517" lon="4.5701017"><ele>305.5</ele><time>2026-04-02T13:18:13.471Z</time></trkpt><trkpt lat="45.8940867" lon="4.57008"><ele>304.6666666666667</ele><time>2026-04-02T13:18:14.471Z</time></trkpt><trkpt lat="45.8940033" lon="4.57"><ele>303.8333333333333</ele><time>2026-04-02T13:18:16.471Z</time></trkpt><trkpt lat="45.8939667" lon="4.5699217"><ele>303.0</ele><time>2026-04-02T13:18:18.471Z</time></trkpt><trkpt lat="45.893895" lon="4.5697467"><ele>303.0</ele><time>2026-04-02T13:18:20.47Z</time></trkpt><trkpt lat="45.8938383" lon="4.5695967"><ele>303.0</ele><time>2026-04-02T13:18:21.471Z</time></trkpt><trkpt lat="45.8937767" lon="4.56943"><ele>303.0</ele><time>2026-04-02T13:18:22.471Z</time></trkpt><trkpt lat="45.8937217" lon="4.5692617"><ele>303.0</ele><time>2026-04-02T13:18:23.471Z</time></trkpt><trkpt lat="45.8936667" lon="4.569085"><ele>303.6</ele><time>2026-04-02T13:18:24.471Z</time></trkpt><trkpt lat="45.8936183" lon="4.5689233"><ele>304.20000000000005</ele><time>2026-04-02T13:18:25.471Z</time></trkpt><trkpt lat="45.89358" lon="4.56879"><ele>304.8</ele><time>2026-04-02T13:18:26.471Z</time></trkpt><trkpt lat="45.893545" lon="4.5686717"><ele>305.40000000000003</ele><time>2026-04-02T13:18:27.471Z</time></trkpt><trkpt lat="45.8935233" lon="4.5685767"><ele>306.0</ele><time>2026-04-02T13:18:28.471Z</time></trkpt><trkpt lat="45.8935067" lon="4.568475"><ele>306.0</ele><time>2026-04-02T13:18:29.471Z</time></trkpt><trkpt lat="45.8934867" lon="4.56835"><ele>306.0</ele><time>2026-04-02T13:18:30.471Z</time></trkpt><trkpt lat="45.8934667" lon="4.5682083"><ele>306.0</ele><time>2026-04-02T13:18:31.471Z</time></trkpt><trkpt lat="45.8934533" lon="4.5680733"><ele>306.0</ele><time>2026-04-02T13:18:32.471Z</time></trkpt><trkpt lat="45.893445" lon="4.5679467"><ele>306.0</ele><time>2026-04-02T13:18:33.471Z</time></trkpt><trkpt lat="45.8934483" lon="4.567805"><ele>305.0</ele><time>2026-04-02T13:18:34.471Z</time></trkpt><trkpt lat="45.8934517" lon="4.567635"><ele>304.0</ele><time>2026-04-02T13:18:35.471Z</time></trkpt><trkpt lat="45.8934633" lon="4.5674767"><ele>303.0</ele><time>2026-04-02T13:18:36.471Z</time></trkpt><trkpt lat="45.8934667" lon="4.5673183"><ele>302.0</ele><time>2026-04-02T13:18:37.471Z</time></trkpt><trkpt lat="45.8934617" lon="4.5672"><ele>301.0</ele><time>2026-04-02T13:18:38.471Z</time></trkpt><trkpt lat="45.89345" lon="4.567085"><ele>300.8333333333333</ele><time>2026-04-02T13:18:39.471Z</time></trkpt><trkpt lat="45.8934383" lon="4.5669817"><ele>300.66666666666663</ele><time>2026-04-02T13:18:40.471Z</time></trkpt><trkpt lat="45.8934117" lon="4.566825"><ele>300.5</ele><time>2026-04-02T13:18:42.471Z</time></trkpt><trkpt lat="45.8933783" lon="4.5667067"><ele>300.3333333333333</ele><time>2026-04-02T13:18:45.471Z</time></trkpt><trkpt lat="45.89339" lon="4.5668283"><ele>300.1666666666667</ele><time>2026-04-02T13:21:07.47Z</time></trkpt><trkpt lat="45.8934117" lon="4.56692"><ele>300.0</ele><time>2026-04-02T13:21:14.471Z</time></trkpt><trkpt lat="45.893435" lon="4.5670083"><ele>300.1666666666667</ele><time>2026-04-02T13:21:20.471Z</time></trkpt><trkpt lat="45.8934433" lon="4.567105"><ele>300.3333333333333</ele><time>2026-04-02T13:21:26.471Z</time></trkpt><trkpt lat="45.8934533" lon="4.5672183"><ele>300.5</ele><time>2026-04-02T13:21:52.471Z</time></trkpt><trkpt lat="45.8934567" lon="4.5673667"><ele>300.66666666666663</ele><time>2026-04-02T13:21:54.471Z</time></trkpt><trkpt lat="45.8934467" lon="4.5674717"><ele>300.8333333333333</ele><time>2026-04-02T13:21:55.471Z</time></trkpt><trkpt lat="45.89344" lon="4.56759"><ele>301.0</ele><time>2026-04-02T13:21:56.471Z</time></trkpt><trkpt lat="45.8934417" lon="4.5677433"><ele>302.0</ele><time>2026-04-02T13:21:57.471Z</time></trkpt><trkpt lat="45.8934383" lon="4.5679083"><ele>303.0</ele><time>2026-04-02T13:21:58.47Z</time></trkpt><trkpt lat="45.89344" lon="4.5680683"><ele>304.0</ele><time>2026-04-02T13:21:59.471Z</time></trkpt><trkpt lat="45.8934483" lon="4.56821"><ele>305.0</ele><time>2026-04-02T13:22:00.471Z</time></trkpt><trkpt lat="45.8934617" lon="4.56833"><ele>306.0</ele><time>2026-04-02T13:22:01.471Z</time></trkpt><trkpt lat="45.893475" lon="4.5684417"><ele>306.0</ele><time>2026-04-02T13:22:02.471Z</time></trkpt><trkpt lat="45.8934917" lon="4.5685617"><ele>306.0</ele><time>2026-04-02T13:22:03.47Z</time></trkpt><trkpt lat="45.8935183" lon="4.5686783"><ele>306.0</ele><time>2026-04-02T13:22:04.471Z</time></trkpt><trkpt lat="45.8935567" lon="4.5687933"><ele>306.0</ele><time>2026-04-02T13:22:05.471Z</time></trkpt><trkpt lat="45.89361" lon="4.5689033"><ele>306.0</ele><time>2026-04-02T13:22:06.471Z</time></trkpt><trkpt lat="45.893675" lon="4.5690833"><ele>306.2</ele><time>2026-04-02T13:22:07.471Z</time></trkpt><trkpt lat="45.89374" lon="4.5692617"><ele>306.40000000000003</ele><time>2026-04-02T13:22:08.471Z</time></trkpt><trkpt lat="45.893795" lon="4.5694033"><ele>306.6</ele><time>2026-04-02T13:22:09.472Z</time></trkpt><trkpt lat="45.8938383" lon="4.5695233"><ele>306.8</ele><time>2026-04-02T13:22:10.472Z</time></trkpt><trkpt lat="45.8938783" lon="4.5696317"><ele>307.0</ele><time>2026-04-02T13:22:11.472Z</time></trkpt><trkpt lat="45.8939133" lon="4.569725"><ele>307.16666666666663</ele><time>2026-04-02T13:22:12.471Z</time></trkpt><trkpt lat="45.8939433" lon="4.56981"><ele>307.3333333333333</ele><time>2026-04-02T13:22:13.472Z</time></trkpt><trkpt lat="45.893975" lon="4.5699"><ele>307.5</ele><time>2026-04-02T13:22:14.471Z</time></trkpt><trkpt lat="45.8940517" lon="4.5700217"><ele>307.6666666666667</ele><time>2026-04-02T13:22:16.472Z</time></trkpt><trkpt lat="45.8941067" lon="4.5700683"><ele>307.83333333333337</ele><time>2026-04-02T13:22:17.472Z</time></trkpt><trkpt lat="45.894185" lon="4.5701033"><ele>308.0</ele><time>2026-04-02T13:22:18.472Z</time></trkpt><trkpt lat="45.8942867" lon="4.5701317"><ele>308.0</ele><time>2026-04-02T13:22:19.472Z</time></trkpt><trkpt lat="45.8944017" lon="4.5701517"><ele>308.0</ele><time>2026-04-02T13:22:20.472Z</time></trkpt><trkpt lat="45.8945017" lon="4.5701783"><ele>308.0</ele><time>2026-04-02T13:22:21.472Z</time></trkpt><trkpt lat="45.89458" lon="4.5702"><ele>308.0</ele><time>2026-04-02T13:22:22.472Z</time></trkpt><trkpt lat="45.89465" lon="4.57022"><ele>308.0</ele><time>2026-04-02T13:22:23.472Z</time></trkpt><trkpt lat="45.8947317" lon="4.5702783"><ele>308.4</ele><time>2026-04-02T13:22:25.472Z</time></trkpt><trkpt lat="45.8947833" lon="4.5703633"><ele>308.8</ele><time>2026-04-02T13:22:27.472Z</time></trkpt><trkpt lat="45.8948567" lon="4.5704417"><ele>309.2</ele><time>2026-04-02T13:22:29.472Z</time></trkpt><trkpt lat="45.8949767" lon="4.5705533"><ele>309.6</ele><time>2026-04-02T13:22:31.472Z</time></trkpt><trkpt lat="45.895055" lon="4.5706133"><ele>310.0</ele><time>2026-04-02T13:22:32.472Z</time></trkpt><trkpt lat="45.8951283" lon="4.5706567"><ele>310.0</ele><time>2026-04-02T13:22:33.472Z</time></trkpt><trkpt lat="45.8951867" lon="4.5707033"><ele>310.0</ele><time>2026-04-02T13:22:34.472Z</time></trkpt><trkpt lat="45.8952983" lon="4.570775"><ele>310.0</ele><time>2026-04-02T13:22:36.472Z</time></trkpt><trkpt lat="45.89539" lon="4.5708117"><ele>310.0</ele><time>2026-04-02T13:22:38.472Z</time></trkpt><trkpt lat="45.89549" lon="4.5707967"><ele>310.0</ele><time>2026-04-02T13:22:40.472Z</time></trkpt><trkpt lat="45.895565" lon="4.5707583"><ele>310.0</ele><time>2026-04-02T13:22:41.472Z</time></trkpt><trkpt lat="45.895665" lon="4.5707117"><ele>310.0</ele><time>2026-04-02T13:22:42.472Z</time></trkpt><trkpt lat="45.895775" lon="4.570655"><ele>310.0</ele><time>2026-04-02T13:22:43.472Z</time></trkpt><trkpt lat="45.8958817" lon="4.5706067"><ele>310.0</ele><time>2026-04-02T13:22:44.472Z</time></trkpt><trkpt lat="45.8959983" lon="4.5705583"><ele>311.0</ele><time>2026-04-02T13:22:45.472Z</time></trkpt><trkpt lat="45.8961283" lon="4.5705117"><ele>312.0</ele><time>2026-04-02T13:22:46.472Z</time></trkpt><trkpt lat="45.8962633" lon="4.5704683"><ele>313.0</ele><time>2026-04-02T13:22:47.472Z</time></trkpt><trkpt lat="45.8963733" lon="4.570425"><ele>314.0</ele><time>2026-04-02T13:22:48.472Z</time></trkpt><trkpt lat="45.8964583" lon="4.5703833"><ele>313.83333333333337</ele><time>2026-04-02T13:22:49.472Z</time></trkpt><trkpt lat="45.8965333" lon="4.5703517"><ele>313.6666666666667</ele><time>2026-04-02T13:22:50.472Z</time></trkpt><trkpt lat="45.8966" lon="4.5703283"><ele>313.5</ele><time>2026-04-02T13:22:51.472Z</time></trkpt><trkpt lat="45.8966983" lon="4.5702983"><ele>313.3333333333333</ele><time>2026-04-02T13:22:53.472Z</time></trkpt><trkpt lat="45.8968017" lon="4.5702633"><ele>313.16666666666663</ele><time>2026-04-02T13:22:55.472Z</time></trkpt><trkpt lat="45.8968633" lon="4.5702383"><ele>313.0</ele><time>2026-04-02T13:22:56.472Z</time></trkpt><trkpt lat="45.896925" lon="4.570215"><ele>314.0</ele><time>2026-04-02T13:22:57.472Z</time></trkpt><trkpt lat="45.8969883" lon="4.5701883"><ele>315.0</ele><time>2026-04-02T13:22:58.472Z</time></trkpt><trkpt lat="45.897085" lon="4.570135"><ele>316.0</ele><time>2026-04-02T13:23:00.472Z</time></trkpt><trkpt lat="45.89722" lon="4.5700717"><ele>317.0</ele><time>2026-04-02T13:23:02.472Z</time></trkpt><trkpt lat="45.8973267" lon="4.5700283"><ele>318.0</ele><time>2026-04-02T13:23:03.472Z</time></trkpt><trkpt lat="45.8974517" lon="4.569985"><ele>318.0</ele><time>2026-04-02T13:23:04.472Z</time></trkpt><trkpt lat="45.8975717" lon="4.56994"><ele>318.0</ele><time>2026-04-02T13:23:05.472Z</time></trkpt><trkpt lat="45.897675" lon="4.5699033"><ele>318.0</ele><time>2026-04-02T13:23:06.472Z</time></trkpt><trkpt lat="45.8977683" lon="4.5698683"><ele>318.0</ele><time>2026-04-02T13:23:07.472Z</time></trkpt><trkpt lat="45.8978717" lon="4.5698367"><ele>318.0</ele><time>2026-04-02T13:23:08.472Z</time></trkpt><trkpt lat="45.8979783" lon="4.5698083"><ele>318.6666666666667</ele><time>2026-04-02T13:23:09.471Z</time></trkpt><trkpt lat="45.898065" lon="4.5697867"><ele>319.3333333333333</ele><time>2026-04-02T13:23:10.472Z</time></trkpt><trkpt lat="45.8981383" lon="4.56977"><ele>320.0</ele><time>2026-04-02T13:23:11.472Z</time></trkpt><trkpt lat="45.898215" lon="4.5697483"><ele>320.66666666666663</ele><time>2026-04-02T13:23:12.472Z</time></trkpt><trkpt lat="45.8982933" lon="4.5697383"><ele>321.3333333333333</ele><time>2026-04-02T13:23:13.472Z</time></trkpt><trkpt lat="45.898385" lon="4.569715"><ele>322.0</ele><time>2026-04-02T13:23:14.471Z</time></trkpt><trkpt lat="45.8984783" lon="4.5696983"><ele>322.0</ele><time>2026-04-02T13:23:15.471Z</time></trkpt><trkpt lat="45.8985567" lon="4.5696983"><ele>322.0</ele><time>2026-04-02T13:23:16.472Z</time></trkpt><trkpt lat="45.898645" lon="4.5697167"><ele>322.0</ele><time>2026-04-02T13:23:17.471Z</time></trkpt><trkpt lat="45.8987483" lon="4.5697567"><ele>322.0</ele><time>2026-04-02T13:23:18.472Z</time></trkpt><trkpt lat="45.8988533" lon="4.5697983"><ele>322.0</ele><time>2026-04-02T13:23:19.472Z</time></trkpt><trkpt lat="45.89895" lon="4.56983"><ele>322.0</ele><time>2026-04-02T13:23:20.472Z</time></trkpt><trkpt lat="45.8990433" lon="4.5698517"><ele>322.0</ele><time>2026-04-02T13:23:21.471Z</time></trkpt><trkpt lat="45.8991567" lon="4.56987"><ele>322.0</ele><time>2026-04-02T13:23:22.471Z</time></trkpt><trkpt lat="45.8992733" lon="4.569875"><ele>322.0</ele><time>2026-04-02T13:23:23.472Z</time></trkpt><trkpt lat="45.8993683" lon="4.5698733"><ele>322.0</ele><time>2026-04-02T13:23:24.472Z</time></trkpt><trkpt lat="45.8994517" lon="4.569865"><ele>321.85714285714283</ele><time>2026-04-02T13:23:25.472Z</time></trkpt><trkpt lat="45.89953" lon="4.5698617"><ele>321.7142857142857</ele><time>2026-04-02T13:23:26.472Z</time></trkpt><trkpt lat="45.8996067" lon="4.5698483"><ele>321.57142857142856</ele><time>2026-04-02T13:23:27.472Z</time></trkpt><trkpt lat="45.8996817" lon="4.5698283"><ele>321.42857142857144</ele><time>2026-04-02T13:23:28.471Z</time></trkpt><trkpt lat="45.899755" lon="4.5698083"><ele>321.2857142857143</ele><time>2026-04-02T13:23:29.472Z</time></trkpt><trkpt lat="45.8998217" lon="4.56978"><ele>321.1428571428571</ele><time>2026-04-02T13:23:30.472Z</time></trkpt><trkpt lat="45.8998867" lon="4.5697467"><ele>321.0</ele><time>2026-04-02T13:23:31.472Z</time></trkpt><trkpt lat="45.899955" lon="4.5697133"><ele>321.0</ele><time>2026-04-02T13:23:32.472Z</time></trkpt><trkpt lat="45.9000667" lon="4.5696617"><ele>321.0</ele><time>2026-04-02T13:23:34.472Z</time></trkpt><trkpt lat="45.9001983" lon="4.5695967"><ele>321.0</ele><time>2026-04-02T13:23:36.471Z</time></trkpt><trkpt lat="45.9002867" lon="4.5695633"><ele>321.0</ele><time>2026-04-02T13:23:37.471Z</time></trkpt><trkpt lat="45.9003917" lon="4.5695217"><ele>320.6666666666667</ele><time>2026-04-02T13:23:38.472Z</time></trkpt><trkpt lat="45.9004883" lon="4.56948"><ele>320.3333333333333</ele><time>2026-04-02T13:23:39.472Z</time></trkpt><trkpt lat="45.9005683" lon="4.5694517"><ele>320.0</ele><time>2026-04-02T13:23:40.472Z</time></trkpt><trkpt lat="45.9006317" lon="4.5694267"><ele>319.66666666666663</ele><time>2026-04-02T13:23:41.472Z</time></trkpt><trkpt lat="45.900715" lon="4.5694133"><ele>319.3333333333333</ele><time>2026-04-02T13:23:43.471Z</time></trkpt><trkpt lat="45.9008017" lon="4.5694083"><ele>319.0</ele><time>2026-04-02T13:23:45.472Z</time></trkpt><trkpt lat="45.90088" lon="4.5693767"><ele>317.4</ele><time>2026-04-02T13:23:46.472Z</time></trkpt><trkpt lat="45.9009867" lon="4.569335"><ele>315.79999999999995</ele><time>2026-04-02T13:23:47.472Z</time></trkpt><trkpt lat="45.9011083" lon="4.569285"><ele>314.20000000000005</ele><time>2026-04-02T13:23:48.472Z</time></trkpt><trkpt lat="45.90121" lon="4.569255"><ele>312.6</ele><time>2026-04-02T13:23:49.472Z</time></trkpt><trkpt lat="45.90129" lon="4.5692117"><ele>311.0</ele><time>2026-04-02T13:23:50.472Z</time></trkpt><trkpt lat="45.901355" lon="4.56917"><ele>311.0</ele><time>2026-04-02T13:23:51.472Z</time></trkpt><trkpt lat="45.9014117" lon="4.5691033"><ele>311.0</ele><time>2026-04-02T13:23:52.472Z</time></trkpt><trkpt lat="45.9014617" lon="4.5690183"><ele>311.0</ele><time>2026-04-02T13:23:53.472Z</time></trkpt><trkpt lat="45.9014933" lon="4.568915"><ele>311.0</ele><time>2026-04-02T13:23:54.472Z</time></trkpt><trkpt lat="45.9015083" lon="4.5687983"><ele>311.0</ele><time>2026-04-02T13:23:55.472Z</time></trkpt><trkpt lat="45.9015133" lon="4.5686583"><ele>311.0</ele><time>2026-04-02T13:23:56.472Z</time></trkpt><trkpt lat="45.9015133" lon="4.5685133"><ele>309.6</ele><time>2026-04-02T13:23:57.472Z</time></trkpt><trkpt lat="45.901505" lon="4.5683767"><ele>308.20000000000005</ele><time>2026-04-02T13:23:58.472Z</time></trkpt><trkpt lat="45.9014917" lon="4.568245"><ele>306.79999999999995</ele><time>2026-04-02T13:23:59.472Z</time></trkpt><trkpt lat="45.901475" lon="4.5681167"><ele>305.4</ele><time>2026-04-02T13:24:00.472Z</time></trkpt><trkpt lat="45.9014467" lon="4.567985"><ele>304.0</ele><time>2026-04-02T13:24:01.472Z</time></trkpt><trkpt lat="45.9014" lon="4.567855"><ele>300.75</ele><time>2026-04-02T13:24:02.472Z</time></trkpt><trkpt lat="45.9013383" lon="4.56772"><ele>297.5</ele><time>2026-04-02T13:24:03.471Z</time></trkpt><trkpt lat="45.9012483" lon="4.5675717"><ele>294.25</ele><time>2026-04-02T13:24:04.472Z</time></trkpt><trkpt lat="45.9011467" lon="4.5674017"><ele>291.0</ele><time>2026-04-02T13:24:05.472Z</time></trkpt><trkpt lat="45.90104" lon="4.56724"><ele>291.0</ele><time>2026-04-02T13:24:06.472Z</time></trkpt><trkpt lat="45.9009533" lon="4.5671083"><ele>291.0</ele><time>2026-04-02T13:24:07.471Z</time></trkpt><trkpt lat="45.900875" lon="4.567"><ele>291.0</ele><time>2026-04-02T13:24:08.472Z</time></trkpt><trkpt lat="45.9008017" lon="4.5668967"><ele>291.0</ele><time>2026-04-02T13:24:09.472Z</time></trkpt><trkpt lat="45.9007333" lon="4.5668217"><ele>291.0</ele><time>2026-04-02T13:24:10.472Z</time></trkpt><trkpt lat="45.90066" lon="4.5667667"><ele>292.2</ele><time>2026-04-02T13:24:11.472Z</time></trkpt><trkpt lat="45.900585" lon="4.5667133"><ele>293.40000000000003</ele><time>2026-04-02T13:24:12.472Z</time></trkpt><trkpt lat="45.90048" lon="4.566655"><ele>294.6</ele><time>2026-04-02T13:24:13.472Z</time></trkpt><trkpt lat="45.900365" lon="4.56659"><ele>295.8</ele><time>2026-04-02T13:24:14.472Z</time></trkpt><trkpt lat="45.9002617" lon="4.5665433"><ele>297.0</ele><time>2026-04-02T13:24:15.472Z</time></trkpt><trkpt lat="45.9001717" lon="4.56652"><ele>297.0</ele><time>2026-04-02T13:24:16.472Z</time></trkpt><trkpt lat="45.9000917" lon="4.5665067"><ele>297.0</ele><time>2026-04-02T13:24:17.472Z</time></trkpt><trkpt lat="45.9000283" lon="4.5664817"><ele>297.0</ele><time>2026-04-02T13:24:18.472Z</time></trkpt><trkpt lat="45.8999383" lon="4.5664367"><ele>297.0</ele><time>2026-04-02T13:24:20.472Z</time></trkpt><trkpt lat="45.8998667" lon="4.56642"><ele>297.0</ele><time>2026-04-02T13:24:22.472Z</time></trkpt><trkpt lat="45.8998033" lon="4.56637"><ele>297.0</ele><time>2026-04-02T13:24:25.472Z</time></trkpt><trkpt lat="45.8997483" lon="4.5663033"><ele>297.0</ele><time>2026-04-02T13:24:28.472Z</time></trkpt><trkpt lat="45.8996917" lon="4.5663483"><ele>297.0</ele><time>2026-04-02T13:24:32.472Z</time></trkpt><trkpt lat="45.899755" lon="4.5664083"><ele>297.0</ele><time>2026-04-02T13:24:36.472Z</time></trkpt><trkpt lat="45.8998783" lon="4.566435"><ele>297.0</ele><time>2026-04-02T13:24:38.472Z</time></trkpt><trkpt lat="45.8999867" lon="4.5664683"><ele>297.0</ele><time>2026-04-02T13:24:39.472Z</time></trkpt><trkpt lat="45.9000967" lon="4.5665017"><ele>297.0</ele><time>2026-04-02T13:24:40.472Z</time></trkpt><trkpt lat="45.9002017" lon="4.5665367"><ele>297.0</ele><time>2026-04-02T13:24:41.472Z</time></trkpt><trkpt lat="45.9003233" lon="4.5665833"><ele>297.0</ele><time>2026-04-02T13:24:42.472Z</time></trkpt><trkpt lat="45.900465" lon="4.566645"><ele>297.0</ele><time>2026-04-02T13:24:43.472Z</time></trkpt><trkpt lat="45.9005933" lon="4.5667167"><ele>297.0</ele><time>2026-04-02T13:24:44.472Z</time></trkpt><trkpt lat="45.9006933" lon="4.5667983"><ele>297.0</ele><time>2026-04-02T13:24:45.472Z</time></trkpt><trkpt lat="45.9007833" lon="4.5668833"><ele>297.0</ele><time>2026-04-02T13:24:46.472Z</time></trkpt><trkpt lat="45.9008667" lon="4.566995"><ele>297.0</ele><time>2026-04-02T13:24:47.472Z</time></trkpt><trkpt lat="45.9009617" lon="4.567135"><ele>295.5</ele><time>2026-04-02T13:24:48.471Z</time></trkpt><trkpt lat="45.9010533" lon="4.5672833"><ele>294.0</ele><time>2026-04-02T13:24:49.472Z</time></trkpt><trkpt lat="45.901145" lon="4.567425"><ele>292.5</ele><time>2026-04-02T13:24:50.472Z</time></trkpt><trkpt lat="45.9012233" lon="4.56754"><ele>291.0</ele><time>2026-04-02T13:24:51.472Z</time></trkpt><trkpt lat="45.9012833" lon="4.56764"><ele>291.0</ele><time>2026-04-02T13:24:52.471Z</time></trkpt><trkpt lat="45.9013367" lon="4.5677383"><ele>291.0</ele><time>2026-04-02T13:24:53.472Z</time></trkpt><trkpt lat="45.90138" lon="4.5678583"><ele>291.0</ele><time>2026-04-02T13:24:54.472Z</time></trkpt><trkpt lat="45.9014233" lon="4.5680017"><ele>291.0</ele><time>2026-04-02T13:24:55.472Z</time></trkpt><trkpt lat="45.9014567" lon="4.5681733"><ele>291.0</ele><time>2026-04-02T13:24:56.472Z</time></trkpt><trkpt lat="45.9014767" lon="4.5683433"><ele>293.1666666666667</ele><time>2026-04-02T13:24:57.472Z</time></trkpt><trkpt lat="45.9014933" lon="4.5685017"><ele>295.3333333333333</ele><time>2026-04-02T13:24:58.472Z</time></trkpt><trkpt lat="45.9015033" lon="4.56863"><ele>297.5</ele><time>2026-04-02T13:24:59.472Z</time></trkpt><trkpt lat="45.9015117" lon="4.5687483"><ele>299.66666666666663</ele><time>2026-04-02T13:25:00.472Z</time></trkpt><trkpt lat="45.9015017" lon="4.5688533"><ele>301.8333333333333</ele><time>2026-04-02T13:25:01.471Z</time></trkpt><trkpt lat="45.901475" lon="4.5689517"><ele>304.0</ele><time>2026-04-02T13:25:02.472Z</time></trkpt><trkpt lat="45.90144" lon="4.5690467"><ele>305.4</ele><time>2026-04-02T13:25:03.471Z</time></trkpt><trkpt lat="45.901385" lon="4.5691317"><ele>306.79999999999995</ele><time>2026-04-02T13:25:04.472Z</time></trkpt><trkpt lat="45.9013117" lon="4.5691933"><ele>308.20000000000005</ele><time>2026-04-02T13:25:05.471Z</time></trkpt><trkpt lat="45.9012267" lon="4.5692483"><ele>309.6</ele><time>2026-04-02T13:25:06.472Z</time></trkpt><trkpt lat="45.9011233" lon="4.5692783"><ele>311.0</ele><time>2026-04-02T13:25:07.472Z</time></trkpt><trkpt lat="45.9010167" lon="4.5693067"><ele>311.0</ele><time>2026-04-02T13:25:08.472Z</time></trkpt><trkpt lat="45.9009317" lon="4.5693433"><ele>311.0</ele><time>2026-04-02T13:25:09.471Z</time></trkpt><trkpt lat="45.9008617" lon="4.5693833"><ele>311.0</ele><time>2026-04-02T13:25:10.472Z</time></trkpt><trkpt lat="45.9007733" lon="4.569435"><ele>311.0</ele><time>2026-04-02T13:25:12.472Z</time></trkpt><trkpt lat="45.90075" lon="4.5695417"><ele>311.0</ele><time>2026-04-02T13:25:14.472Z</time></trkpt><trkpt lat="45.9007567" lon="4.569645"><ele>311.0</ele><time>2026-04-02T13:25:15.472Z</time></trkpt><trkpt lat="45.9007617" lon="4.569805"><ele>310.25</ele><time>2026-04-02T13:25:16.472Z</time></trkpt><trkpt lat="45.9007733" lon="4.57002"><ele>309.5</ele><time>2026-04-02T13:25:17.472Z</time></trkpt><trkpt lat="45.9007817" lon="4.5702333"><ele>308.75</ele><time>2026-04-02T13:25:18.472Z</time></trkpt><trkpt lat="45.9007767" lon="4.5704233"><ele>308.0</ele><time>2026-04-02T13:25:19.472Z</time></trkpt><trkpt lat="45.900775" lon="4.57059"><ele>308.0</ele><time>2026-04-02T13:25:20.472Z</time></trkpt><trkpt lat="45.9007683" lon="4.570755"><ele>308.0</ele><time>2026-04-02T13:25:21.472Z</time></trkpt><trkpt lat="45.900765" lon="4.5709067"><ele>308.0</ele><time>2026-04-02T13:25:22.472Z</time></trkpt><trkpt lat="45.9007683" lon="4.571055"><ele>308.0</ele><time>2026-04-02T13:25:23.471Z</time></trkpt><trkpt lat="45.9007667" lon="4.571225"><ele>308.0</ele><time>2026-04-02T13:25:24.472Z</time></trkpt><trkpt lat="45.9007717" lon="4.5714183"><ele>306.5</ele><time>2026-04-02T13:25:25.472Z</time></trkpt><trkpt lat="45.9007833" lon="4.571605"><ele>305.0</ele><time>2026-04-02T13:25:26.472Z</time></trkpt><trkpt lat="45.9007933" lon="4.5717767"><ele>303.5</ele><time>2026-04-02T13:25:27.472Z</time></trkpt><trkpt lat="45.9008017" lon="4.5719317"><ele>302.0</ele><time>2026-04-02T13:25:28.472Z</time></trkpt><trkpt lat="45.9008067" lon="4.5720733"><ele>300.6666666666667</ele><time>2026-04-02T13:25:29.472Z</time></trkpt><trkpt lat="45.9008033" lon="4.5722083"><ele>299.33333333333337</ele><time>2026-04-02T13:25:30.472Z</time></trkpt><trkpt lat="45.9008" lon="4.5723467"><ele>298.0</ele><time>2026-04-02T13:25:31.472Z</time></trkpt><trkpt lat="45.9007983" lon="4.5724767"><ele>296.6666666666667</ele><time>2026-04-02T13:25:32.472Z</time></trkpt><trkpt lat="45.90079" lon="4.5725983"><ele>295.3333333333333</ele><time>2026-04-02T13:25:33.472Z</time></trkpt><trkpt lat="45.9007817" lon="4.5727117"><ele>294.0</ele><time>2026-04-02T13:25:34.472Z</time></trkpt><trkpt lat="45.9007667" lon="4.5728183"><ele>293.6666666666667</ele><time>2026-04-02T13:25:35.472Z</time></trkpt><trkpt lat="45.9007467" lon="4.572915"><ele>293.3333333333333</ele><time>2026-04-02T13:25:36.472Z</time></trkpt><trkpt lat="45.9007233" lon="4.5730283"><ele>293.0</ele><time>2026-04-02T13:25:37.472Z</time></trkpt><trkpt lat="45.9006867" lon="4.5731633"><ele>292.66666666666663</ele><time>2026-04-02T13:25:38.472Z</time></trkpt><trkpt lat="45.90066" lon="4.573295"><ele>292.3333333333333</ele><time>2026-04-02T13:25:39.472Z</time></trkpt><trkpt lat="45.9006333" lon="4.5734017"><ele>292.0</ele><time>2026-04-02T13:25:40.472Z</time></trkpt><trkpt lat="45.9006117" lon="4.57349"><ele>292.0</ele><time>2026-04-02T13:25:41.472Z</time></trkpt><trkpt lat="45.9005883" lon="4.573625"><ele>292.0</ele><time>2026-04-02T13:25:43.472Z</time></trkpt><trkpt lat="45.9005717" lon="4.57373"><ele>292.0</ele><time>2026-04-02T13:25:45.472Z</time></trkpt><trkpt lat="45.900575" lon="4.573825"><ele>292.0</ele><time>2026-04-02T13:25:47.472Z</time></trkpt><trkpt lat="45.9005917" lon="4.5739183"><ele>292.0</ele><time>2026-04-02T13:25:49.471Z</time></trkpt><trkpt lat="45.9006417" lon="4.5740383"><ele>292.0</ele><time>2026-04-02T13:25:52.472Z</time></trkpt><trkpt lat="45.900685" lon="4.5741483"><ele>291.3333333333333</ele><time>2026-04-02T13:25:54.472Z</time></trkpt><trkpt lat="45.9007433" lon="4.5742667"><ele>290.66666666666663</ele><time>2026-04-02T13:25:56.472Z</time></trkpt><trkpt lat="45.9007817" lon="4.57435"><ele>290.0</ele><time>2026-04-02T13:25:57.471Z</time></trkpt><trkpt lat="45.9008467" lon="4.5744883"><ele>289.3333333333333</ele><time>2026-04-02T13:25:59.472Z</time></trkpt><trkpt lat="45.9008867" lon="4.57458"><ele>288.6666666666667</ele><time>2026-04-02T13:26:00.472Z</time></trkpt><trkpt lat="45.9009283" lon="4.5746817"><ele>288.0</ele><time>2026-04-02T13:26:01.472Z</time></trkpt><trkpt lat="45.9009767" lon="4.5747933"><ele>287.6</ele><time>2026-04-02T13:26:02.472Z</time></trkpt><trkpt lat="45.9010417" lon="4.5749283"><ele>287.20000000000005</ele><time>2026-04-02T13:26:03.472Z</time></trkpt><trkpt lat="45.90111" lon="4.5750617"><ele>286.8</ele><time>2026-04-02T13:26:04.472Z</time></trkpt><trkpt lat="45.90117" lon="4.575175"><ele>286.40000000000003</ele><time>2026-04-02T13:26:05.472Z</time></trkpt><trkpt lat="45.90122" lon="4.5752717"><ele>286.0</ele><time>2026-04-02T13:26:06.472Z</time></trkpt><trkpt lat="45.901275" lon="4.5753917"><ele>285.8333333333333</ele><time>2026-04-02T13:26:08.471Z</time></trkpt><trkpt lat="45.901305" lon="4.5754817"><ele>285.66666666666663</ele><time>2026-04-02T13:26:10.472Z</time></trkpt><trkpt lat="45.9012967" lon="4.57558"><ele>285.5</ele><time>2026-04-02T13:26:13.472Z</time></trkpt><trkpt lat="45.90124" lon="4.5756467"><ele>285.3333333333333</ele><time>2026-04-02T13:26:15.472Z</time></trkpt><trkpt lat="45.9011783" lon="4.5756917"><ele>285.1666666666667</ele><time>2026-04-02T13:26:16.472Z</time></trkpt><trkpt lat="45.9011" lon="4.5757417"><ele>285.0</ele><time>2026-04-02T13:26:17.472Z</time></trkpt><trkpt lat="45.9010117" lon="4.5757933"><ele>285.0</ele><time>2026-04-02T13:26:18.472Z</time></trkpt><trkpt lat="45.90093" lon="4.5758433"><ele>285.0</ele><time>2026-04-02T13:26:19.472Z</time></trkpt><trkpt lat="45.9008617" lon="4.575915"><ele>285.0</ele><time>2026-04-02T13:26:20.472Z</time></trkpt><trkpt lat="45.9007996" lon="4.5760038"><ele>285.0</ele><time>2026-04-02T13:26:21.472Z</time></trkpt><trkpt lat="45.9007423" lon="4.5761322"><ele>285.0</ele><time>2026-04-02T13:26:22.472Z</time></trkpt><trkpt lat="45.9006908" lon="4.5763063"><ele>283.6666666666667</ele><time>2026-04-02T13:26:23.472Z</time></trkpt><trkpt lat="45.9006344" lon="4.5765092"><ele>282.33333333333337</ele><time>2026-04-02T13:26:24.472Z</time></trkpt><trkpt lat="45.9005688" lon="4.5767173"><ele>281.0</ele><time>2026-04-02T13:26:25.472Z</time></trkpt><trkpt lat="45.9005058" lon="4.5769133"><ele>280.6666666666667</ele><time>2026-04-02T13:26:26.472Z</time></trkpt><trkpt lat="45.9004388" lon="4.5771339"><ele>280.3333333333333</ele><time>2026-04-02T13:26:27.471Z</time></trkpt><trkpt lat="45.900365" lon="4.5773763"><ele>280.0</ele><time>2026-04-02T13:26:28.472Z</time></trkpt><trkpt lat="45.900288" lon="4.5776195"><ele>280.0</ele><time>2026-04-02T13:26:29.472Z</time></trkpt><trkpt lat="45.9002195" lon="4.577839"><ele>280.0</ele><time>2026-04-02T13:26:30.472Z</time></trkpt><trkpt lat="45.9001562" lon="4.5780396"><ele>280.0</ele><time>2026-04-02T13:26:31.472Z</time></trkpt><trkpt lat="45.9001089" lon="4.5781994"><ele>280.0</ele><time>2026-04-02T13:26:32.472Z</time></trkpt><trkpt lat="45.9000606" lon="4.5783507"><ele>280.2</ele><time>2026-04-02T13:26:33.471Z</time></trkpt><trkpt lat="45.9000187" lon="4.5784848"><ele>280.4</ele><time>2026-04-02T13:26:34.472Z</time></trkpt><trkpt lat="45.8999776" lon="4.578606"><ele>280.6</ele><time>2026-04-02T13:26:35.472Z</time></trkpt><trkpt lat="45.8999289" lon="4.5787167"><ele>280.8</ele><time>2026-04-02T13:26:36.472Z</time></trkpt><trkpt lat="45.8998682" lon="4.5788188"><ele>281.0</ele><time>2026-04-02T13:26:37.471Z</time></trkpt><trkpt lat="45.8998039" lon="4.5789093"><ele>281.0</ele><time>2026-04-02T13:26:38.472Z</time></trkpt><trkpt lat="45.899736" lon="4.5789931"><ele>281.0</ele><time>2026-04-02T13:26:39.472Z</time></trkpt><trkpt lat="45.8996577" lon="4.579098"><ele>281.0</ele><time>2026-04-02T13:26:40.472Z</time></trkpt><trkpt lat="45.8995583" lon="4.5792329"><ele>281.0</ele><time>2026-04-02T13:26:41.472Z</time></trkpt><trkpt lat="45.8994483" lon="4.5793916"><ele>280.33333333333337</ele><time>2026-04-02T13:26:42.471Z</time></trkpt><trkpt lat="45.8993405" lon="4.5795495"><ele>279.6666666666667</ele><time>2026-04-02T13:26:43.472Z</time></trkpt><trkpt lat="45.8992211" lon="4.5797186"><ele>279.0</ele><time>2026-04-02T13:26:44.472Z</time></trkpt><trkpt lat="45.8990849" lon="4.5799041"><ele>279.0</ele><time>2026-04-02T13:26:45.472Z</time></trkpt><trkpt lat="45.8989414" lon="4.5800994"><ele>279.0</ele><time>2026-04-02T13:26:46.472Z</time></trkpt><trkpt lat="45.8988093" lon="4.5802804"><ele>279.0</ele><time>2026-04-02T13:26:47.472Z</time></trkpt><trkpt lat="45.8986827" lon="4.580444"><ele>279.0</ele><time>2026-04-02T13:26:48.472Z</time></trkpt><trkpt lat="45.898555" lon="4.5806163"><ele>279.0</ele><time>2026-04-02T13:26:49.472Z</time></trkpt><trkpt lat="45.8984156" lon="4.5808115"><ele>279.0</ele><time>2026-04-02T13:26:50.472Z</time></trkpt><trkpt lat="45.8982795" lon="4.5809949"><ele>279.0</ele><time>2026-04-02T13:26:51.472Z</time></trkpt><trkpt lat="45.8981636" lon="4.5811463"><ele>279.0</ele><time>2026-04-02T13:26:52.472Z</time></trkpt><trkpt lat="45.8980611" lon="4.5812809"><ele>279.0</ele><time>2026-04-02T13:26:53.472Z</time></trkpt><trkpt lat="45.8979733" lon="4.5813983"><ele>279.0</ele><time>2026-04-02T13:26:54.472Z</time></trkpt><trkpt lat="45.8978933" lon="4.5815067"><ele>278.2</ele><time>2026-04-02T13:26:55.472Z</time></trkpt><trkpt lat="45.8978233" lon="4.5816"><ele>277.4</ele><time>2026-04-02T13:26:56.472Z</time></trkpt><trkpt lat="45.8977683" lon="4.5816767"><ele>276.6</ele><time>2026-04-02T13:26:57.472Z</time></trkpt><trkpt lat="45.897685" lon="4.5817933"><ele>275.8</ele><time>2026-04-02T13:26:59.472Z</time></trkpt><trkpt lat="45.8976233" lon="4.5818983"><ele>275.0</ele><time>2026-04-02T13:27:01.471Z</time></trkpt><trkpt lat="45.8975933" lon="4.5820817"><ele>275.0</ele><time>2026-04-02T13:27:03.472Z</time></trkpt><trkpt lat="45.897585" lon="4.5822133"><ele>275.0</ele><time>2026-04-02T13:27:04.472Z</time></trkpt><trkpt lat="45.89757" lon="4.5823467"><ele>275.0</ele><time>2026-04-02T13:27:05.472Z</time></trkpt><trkpt lat="45.89756" lon="4.5824683"><ele>275.0</ele><time>2026-04-02T13:27:06.472Z</time></trkpt><trkpt lat="45.8975467" lon="4.5825983"><ele>275.0</ele><time>2026-04-02T13:27:07.472Z</time></trkpt><trkpt lat="45.89754" lon="4.5827117"><ele>275.0</ele><time>2026-04-02T13:27:08.472Z</time></trkpt><trkpt lat="45.8975183" lon="4.58283"><ele>273.83333333333337</ele><time>2026-04-02T13:27:09.472Z</time></trkpt><trkpt lat="45.8974983" lon="4.5829417"><ele>272.6666666666667</ele><time>2026-04-02T13:27:10.472Z</time></trkpt><trkpt lat="45.89747" lon="4.5830433"><ele>271.5</ele><time>2026-04-02T13:27:11.472Z</time></trkpt><trkpt lat="45.8974383" lon="4.5831283"><ele>270.3333333333333</ele><time>2026-04-02T13:27:12.472Z</time></trkpt><trkpt lat="45.8973583" lon="4.5832383"><ele>269.16666666666663</ele><time>2026-04-02T13:27:14.472Z</time></trkpt><trkpt lat="45.897305" lon="4.583315"><ele>268.0</ele><time>2026-04-02T13:27:15.472Z</time></trkpt><trkpt lat="45.8972333" lon="4.5834233"><ele>268.0</ele><time>2026-04-02T13:27:16.472Z</time></trkpt><trkpt lat="45.8971667" lon="4.583545"><ele>268.0</ele><time>2026-04-02T13:27:17.472Z</time></trkpt><trkpt lat="45.8971033" lon="4.5836483"><ele>268.0</ele><time>2026-04-02T13:27:18.472Z</time></trkpt><trkpt lat="45.897045" lon="4.58372"><ele>268.0</ele><time>2026-04-02T13:27:19.472Z</time></trkpt><trkpt lat="45.8969867" lon="4.58377"><ele>268.0</ele><time>2026-04-02T13:27:20.472Z</time></trkpt><trkpt lat="45.896915" lon="4.5838067"><ele>268.0</ele><time>2026-04-02T13:27:21.472Z</time></trkpt><trkpt lat="45.8968283" lon="4.583815"><ele>268.0</ele><time>2026-04-02T13:27:22.472Z</time></trkpt><trkpt lat="45.89673" lon="4.5838033"><ele>268.0</ele><time>2026-04-02T13:27:23.472Z</time></trkpt><trkpt lat="45.8966133" lon="4.583785"><ele>268.0</ele><time>2026-04-02T13:27:24.472Z</time></trkpt><trkpt lat="45.8964817" lon="4.58377"><ele>268.0</ele><time>2026-04-02T13:27:25.472Z</time></trkpt><trkpt lat="45.896345" lon="4.5837633"><ele>268.0</ele><time>2026-04-02T13:27:26.472Z</time></trkpt><trkpt lat="45.8962333" lon="4.5837617"><ele>268.0</ele><time>2026-04-02T13:27:27.472Z</time></trkpt><trkpt lat="45.8961483" lon="4.583765"><ele>268.0</ele><time>2026-04-02T13:27:28.472Z</time></trkpt><trkpt lat="45.8960833" lon="4.5837717"><ele>268.0</ele><time>2026-04-02T13:27:29.472Z</time></trkpt><trkpt lat="45.8959967" lon="4.5838383"><ele>268.0</ele><time>2026-04-02T13:27:31.472Z</time></trkpt><trkpt lat="45.8959283" lon="4.5839933"><ele>267.4</ele><time>2026-04-02T13:27:33.471Z</time></trkpt><trkpt lat="45.89589" lon="4.5841483"><ele>266.8</ele><time>2026-04-02T13:27:35.472Z</time></trkpt><trkpt lat="45.895875" lon="4.5842567"><ele>266.2</ele><time>2026-04-02T13:27:37.472Z</time></trkpt><trkpt lat="45.8958183" lon="4.5843133"><ele>265.6</ele><time>2026-04-02T13:27:39.472Z</time></trkpt><trkpt lat="45.8957033" lon="4.5843283"><ele>265.0</ele><time>2026-04-02T13:27:41.472Z</time></trkpt><trkpt lat="45.8956" lon="4.5843933"><ele>263.75</ele><time>2026-04-02T13:27:43.472Z</time></trkpt><trkpt lat="45.8955367" lon="4.5845917"><ele>262.5</ele><time>2026-04-02T13:27:45.472Z</time></trkpt><trkpt lat="45.8955133" lon="4.5847583"><ele>261.25</ele><time>2026-04-02T13:27:46.472Z</time></trkpt><trkpt lat="45.8954883" lon="4.5849383"><ele>260.0</ele><time>2026-04-02T13:27:47.472Z</time></trkpt><trkpt lat="45.89547" lon="4.585085"><ele>260.0</ele><time>2026-04-02T13:27:48.472Z</time></trkpt><trkpt lat="45.8954533" lon="4.5851983"><ele>260.0</ele><time>2026-04-02T13:27:49.472Z</time></trkpt><trkpt lat="45.8954383" lon="4.5852983"><ele>260.0</ele><time>2026-04-02T13:27:50.472Z</time></trkpt><trkpt lat="45.8954617" lon="4.5854717"><ele>260.0</ele><time>2026-04-02T13:27:52.472Z</time></trkpt><trkpt lat="45.8955267" lon="4.5856333"><ele>260.0</ele><time>2026-04-02T13:27:54.472Z</time></trkpt><trkpt lat="45.8955817" lon="4.585775"><ele>257.6</ele><time>2026-04-02T13:27:56.472Z</time></trkpt><trkpt lat="45.8956433" lon="4.585945"><ele>255.2</ele><time>2026-04-02T13:27:58.472Z</time></trkpt><trkpt lat="45.8956867" lon="4.5860717"><ele>252.8</ele><time>2026-04-02T13:27:59.472Z</time></trkpt><trkpt lat="45.8957133" lon="4.5861767"><ele>250.4</ele><time>2026-04-02T13:28:00.472Z</time></trkpt><trkpt lat="45.8957367" lon="4.5862667"><ele>248.0</ele><time>2026-04-02T13:28:01.472Z</time></trkpt><trkpt lat="45.89577" lon="4.5864033"><ele>246.60000000000002</ele><time>2026-04-02T13:28:03.472Z</time></trkpt><trkpt lat="45.895735" lon="4.586555"><ele>245.20000000000002</ele><time>2026-04-02T13:28:06.472Z</time></trkpt><trkpt lat="45.8956317" lon="4.5865783"><ele>243.8</ele><time>2026-04-02T13:28:08.472Z</time></trkpt><trkpt lat="45.8955483" lon="4.5865617"><ele>242.4</ele><time>2026-04-02T13:28:09.472Z</time></trkpt><trkpt lat="45.8954517" lon="4.5865433"><ele>241.0</ele><time>2026-04-02T13:28:10.472Z</time></trkpt><trkpt lat="45.8953667" lon="4.58653"><ele>240.99999999999997</ele><time>2026-04-02T13:28:11.472Z</time></trkpt><trkpt lat="45.8952883" lon="4.5865417"><ele>241.0</ele><time>2026-04-02T13:28:12.472Z</time></trkpt><trkpt lat="45.895225" lon="4.5865933"><ele>241.0</ele><time>2026-04-02T13:28:13.472Z</time></trkpt><trkpt lat="45.8951717" lon="4.5866633"><ele>241.0</ele><time>2026-04-02T13:28:14.472Z</time></trkpt><trkpt lat="45.895125" lon="4.586775"><ele>240.99999999999997</ele><time>2026-04-02T13:28:15.472Z</time></trkpt><trkpt lat="45.8950817" lon="4.5868883"><ele>241.0</ele><time>2026-04-02T13:28:16.472Z</time></trkpt><trkpt lat="45.8950433" lon="4.5869717"><ele>240.75</ele><time>2026-04-02T13:28:17.472Z</time></trkpt><trkpt lat="45.894965" lon="4.5870983"><ele>240.5</ele><time>2026-04-02T13:28:19.472Z</time></trkpt><trkpt lat="45.8948867" lon="4.5871683"><ele>240.25</ele><time>2026-04-02T13:28:21.471Z</time></trkpt><trkpt lat="45.8950388" lon="4.587003"><ele>240.0</ele><time>2026-04-02T13:28:22.54Z</time></trkpt><trkpt lat="45.8948791" lon="4.5871743"><ele>240.0</ele><time>2026-04-02T13:28:23.554Z</time></trkpt><trkpt lat="45.894808" lon="4.5871697"><ele>240.0</ele><time>2026-04-02T13:28:25.582Z</time></trkpt><trkpt lat="45.8947126" lon="4.5870095"><ele>240.0</ele><time>2026-04-02T13:28:28.472Z</time></trkpt><trkpt lat="45.8946854" lon="4.5868914"><ele>240.0</ele><time>2026-04-02T13:28:29.472Z</time></trkpt><trkpt lat="45.8946557" lon="4.5867457"><ele>240.0</ele><time>2026-04-02T13:28:30.472Z</time></trkpt><trkpt lat="45.8946281" lon="4.586605"><ele>240.66666666666666</ele><time>2026-04-02T13:28:31.472Z</time></trkpt><trkpt lat="45.8946105" lon="4.5864733"><ele>241.33333333333331</ele><time>2026-04-02T13:28:32.472Z</time></trkpt><trkpt lat="45.8945955" lon="4.5863693"><ele>242.0</ele><time>2026-04-02T13:28:33.472Z</time></trkpt><trkpt lat="45.8945782" lon="4.5862389"><ele>242.66666666666666</ele><time>2026-04-02T13:28:35.471Z</time></trkpt><trkpt lat="45.8945517" lon="4.5861"><ele>243.33333333333331</ele><time>2026-04-02T13:28:37.472Z</time></trkpt><trkpt lat="45.8945367" lon="4.5859883"><ele>244.0</ele><time>2026-04-02T13:28:38.472Z</time></trkpt><trkpt lat="45.8945233" lon="4.585845"><ele>244.5</ele><time>2026-04-02T13:28:39.472Z</time></trkpt><trkpt lat="45.8945183" lon="4.5856683"><ele>245.0</ele><time>2026-04-02T13:28:40.472Z</time></trkpt><trkpt lat="45.894525" lon="4.5854567"><ele>245.5</ele><time>2026-04-02T13:28:41.472Z</time></trkpt><trkpt lat="45.8945333" lon="4.585245"><ele>246.0</ele><time>2026-04-02T13:28:42.472Z</time></trkpt><trkpt lat="45.8945333" lon="4.5850517"><ele>246.33333333333331</ele><time>2026-04-02T13:28:43.472Z</time></trkpt><trkpt lat="45.8945333" lon="4.5848517"><ele>246.66666666666666</ele><time>2026-04-02T13:28:44.472Z</time></trkpt><trkpt lat="45.8945233" lon="4.5846417"><ele>247.0</ele><time>2026-04-02T13:28:45.472Z</time></trkpt><trkpt lat="45.8945083" lon="4.5844017"><ele>248.33333333333331</ele><time>2026-04-02T13:28:46.472Z</time></trkpt><trkpt lat="45.8944867" lon="4.58415"><ele>249.66666666666669</ele><time>2026-04-02T13:28:47.472Z</time></trkpt><trkpt lat="45.8944583" lon="4.5839067"><ele>251.0</ele><time>2026-04-02T13:28:48.472Z</time></trkpt><trkpt lat="45.8944333" lon="4.5836867"><ele>251.75</ele><time>2026-04-02T13:28:49.472Z</time></trkpt><trkpt lat="45.894415" lon="4.5834967"><ele>252.5</ele><time>2026-04-02T13:28:50.472Z</time></trkpt><trkpt lat="45.8943933" lon="4.583315"><ele>253.25</ele><time>2026-04-02T13:28:51.472Z</time></trkpt><trkpt lat="45.894375" lon="4.5831233"><ele>254.0</ele><time>2026-04-02T13:28:52.472Z</time></trkpt><trkpt lat="45.89434" lon="4.58292"><ele>254.6</ele><time>2026-04-02T13:28:53.472Z</time></trkpt><trkpt lat="45.894305" lon="4.58274"><ele>255.2</ele><time>2026-04-02T13:28:54.471Z</time></trkpt><trkpt lat="45.894275" lon="4.582575"><ele>255.79999999999998</ele><time>2026-04-02T13:28:55.472Z</time></trkpt><trkpt lat="45.8942367" lon="4.58244"><ele>256.4</ele><time>2026-04-02T13:28:56.471Z</time></trkpt><trkpt lat="45.8942017" lon="4.5823233"><ele>257.0</ele><time>2026-04-02T13:28:57.472Z</time></trkpt><trkpt lat="45.8941567" lon="4.5822067"><ele>260.0</ele><time>2026-04-02T13:28:58.472Z</time></trkpt><trkpt lat="45.894115" lon="4.5820833"><ele>263.0</ele><time>2026-04-02T13:28:59.472Z</time></trkpt><trkpt lat="45.8940367" lon="4.5819233"><ele>266.0</ele><time>2026-04-02T13:29:00.472Z</time></trkpt><trkpt lat="45.8939483" lon="4.5817467"><ele>269.0</ele><time>2026-04-02T13:29:01.472Z</time></trkpt><trkpt lat="45.8938583" lon="4.5815733"><ele>269.0</ele><time>2026-04-02T13:29:02.471Z</time></trkpt><trkpt lat="45.89378" lon="4.5814083"><ele>269.0</ele><time>2026-04-02T13:29:03.472Z</time></trkpt><trkpt lat="45.8937017" lon="4.581255"><ele>269.0</ele><time>2026-04-02T13:29:04.472Z</time></trkpt><trkpt lat="45.8936317" lon="4.5811"><ele>269.0</ele><time>2026-04-02T13:29:05.472Z</time></trkpt><trkpt lat="45.893575" lon="4.5809417"><ele>268.5</ele><time>2026-04-02T13:29:06.472Z</time></trkpt><trkpt lat="45.8935067" lon="4.58078"><ele>268.0</ele><time>2026-04-02T13:29:07.472Z</time></trkpt><trkpt lat="45.8934" lon="4.580615"><ele>267.5</ele><time>2026-04-02T13:29:08.472Z</time></trkpt><trkpt lat="45.8932933" lon="4.5804683"><ele>267.0</ele><time>2026-04-02T13:29:09.472Z</time></trkpt><trkpt lat="45.8931917" lon="4.5803417"><ele>267.0</ele><time>2026-04-02T13:29:10.472Z</time></trkpt><trkpt lat="45.89307" lon="4.5802283"><ele>267.0</ele><time>2026-04-02T13:29:11.472Z</time></trkpt><trkpt lat="45.89294" lon="4.5800917"><ele>267.0</ele><time>2026-04-02T13:29:12.472Z</time></trkpt><trkpt lat="45.8927933" lon="4.579945"><ele>267.0</ele><time>2026-04-02T13:29:13.472Z</time></trkpt><trkpt lat="45.8926367" lon="4.5797717"><ele>267.0</ele><time>2026-04-02T13:29:14.472Z</time></trkpt><trkpt lat="45.8924867" lon="4.5796067"><ele>267.0</ele><time>2026-04-02T13:29:15.472Z</time></trkpt><trkpt lat="45.89235" lon="4.5794483"><ele>268.0</ele><time>2026-04-02T13:29:16.472Z</time></trkpt><trkpt lat="45.892225" lon="4.5793067"><ele>269.0</ele><time>2026-04-02T13:29:17.472Z</time></trkpt><trkpt lat="45.8921183" lon="4.57918"><ele>270.0</ele><time>2026-04-02T13:29:18.472Z</time></trkpt><trkpt lat="45.8920283" lon="4.5790683"><ele>271.0</ele><time>2026-04-02T13:29:19.472Z</time></trkpt><trkpt lat="45.8919517" lon="4.5789767"><ele>271.0</ele><time>2026-04-02T13:29:20.472Z</time></trkpt><trkpt lat="45.8918817" lon="4.5788817"><ele>271.0</ele><time>2026-04-02T13:29:21.472Z</time></trkpt><trkpt lat="45.8918183" lon="4.5788017"><ele>271.0</ele><time>2026-04-02T13:29:22.472Z</time></trkpt><trkpt lat="45.8917633" lon="4.5787333"><ele>271.0</ele><time>2026-04-02T13:29:23.472Z</time></trkpt><trkpt lat="45.8917067" lon="4.57868"><ele>271.0</ele><time>2026-04-02T13:29:24.472Z</time></trkpt><trkpt lat="45.891605" lon="4.5785817"><ele>271.0</ele><time>2026-04-02T13:29:26.472Z</time></trkpt><trkpt lat="45.8915317" lon="4.5785167"><ele>271.8</ele><time>2026-04-02T13:29:27.472Z</time></trkpt><trkpt lat="45.8914317" lon="4.5784483"><ele>272.6</ele><time>2026-04-02T13:29:28.472Z</time></trkpt><trkpt lat="45.8913367" lon="4.5783867"><ele>273.4</ele><time>2026-04-02T13:29:29.472Z</time></trkpt><trkpt lat="45.8912567" lon="4.5783433"><ele>274.2</ele><time>2026-04-02T13:29:30.472Z</time></trkpt><trkpt lat="45.891185" lon="4.5783083"><ele>275.0</ele><time>2026-04-02T13:29:31.472Z</time></trkpt><trkpt lat="45.8910683" lon="4.5782667"><ele>275.0</ele><time>2026-04-02T13:29:33.472Z</time></trkpt><trkpt lat="45.8909617" lon="4.5782183"><ele>275.0</ele><time>2026-04-02T13:29:35.472Z</time></trkpt><trkpt lat="45.8909017" lon="4.5781817"><ele>275.0</ele><time>2026-04-02T13:29:36.471Z</time></trkpt><trkpt lat="45.890845" lon="4.5781333"><ele>275.0</ele><time>2026-04-02T13:29:37.471Z</time></trkpt><trkpt lat="45.890795" lon="4.5780667"><ele>275.0</ele><time>2026-04-02T13:29:38.471Z</time></trkpt><trkpt lat="45.89074" lon="4.5779783"><ele>275.0</ele><time>2026-04-02T13:29:39.472Z</time></trkpt><trkpt lat="45.8907083" lon="4.5778883"><ele>275.5</ele><time>2026-04-02T13:29:40.472Z</time></trkpt><trkpt lat="45.8906467" lon="4.5777683"><ele>276.0</ele><time>2026-04-02T13:29:42.472Z</time></trkpt><trkpt lat="45.8905733" lon="4.57774"><ele>276.5</ele><time>2026-04-02T13:29:44.473Z</time></trkpt><trkpt lat="45.8905033" lon="4.5777633"><ele>277.0</ele><time>2026-04-02T13:29:46.473Z</time></trkpt><trkpt lat="45.8904317" lon="4.577765"><ele>277.5</ele><time>2026-04-02T13:29:49.473Z</time></trkpt><trkpt lat="45.8903533" lon="4.57778"><ele>278.0</ele><time>2026-04-02T13:29:55.473Z</time></trkpt><trkpt lat="45.890225" lon="4.5778083"><ele>278.0</ele><time>2026-04-02T13:30:28.473Z</time></trkpt><trkpt lat="45.8901167" lon="4.5777867"><ele>278.0</ele><time>2026-04-02T13:32:02.473Z</time></trkpt><trkpt lat="45.890035" lon="4.5778117"><ele>278.0</ele><time>2026-04-02T13:32:07.473Z</time></trkpt><trkpt lat="45.8899533" lon="4.5778067"><ele>278.0</ele><time>2026-04-02T13:32:10.473Z</time></trkpt><trkpt lat="45.8898883" lon="4.577795"><ele>278.0</ele><time>2026-04-02T13:32:14.473Z</time></trkpt><trkpt lat="45.8898217" lon="4.57781"><ele>278.0</ele><time>2026-04-02T13:32:17.473Z</time></trkpt><trkpt lat="45.889755" lon="4.57783"><ele>279.85714285714283</ele><time>2026-04-02T13:32:20.473Z</time></trkpt><trkpt lat="45.8896917" lon="4.57786"><ele>281.7142857142857</ele><time>2026-04-02T13:32:22.473Z</time></trkpt><trkpt lat="45.8896217" lon="4.577935"><ele>283.57142857142856</ele><time>2026-04-02T13:32:25.472Z</time></trkpt><trkpt lat="45.8895717" lon="4.5780067"><ele>285.42857142857144</ele><time>2026-04-02T13:32:29.473Z</time></trkpt><trkpt lat="45.88952" lon="4.57808"><ele>287.2857142857143</ele><time>2026-04-02T13:32:39.473Z</time></trkpt><trkpt lat="45.8894767" lon="4.5781517"><ele>289.1428571428571</ele><time>2026-04-02T13:32:43.473Z</time></trkpt><trkpt lat="45.8894267" lon="4.5782133"><ele>291.0</ele><time>2026-04-02T13:32:47.473Z</time></trkpt><trkpt lat="45.8893733" lon="4.5782883"><ele>291.0</ele><time>2026-04-02T13:32:51.473Z</time></trkpt><trkpt lat="45.8893067" lon="4.5783783"><ele>291.0</ele><time>2026-04-02T13:32:55.473Z</time></trkpt><trkpt lat="45.8892583" lon="4.5784417"><ele>291.0</ele><time>2026-04-02T13:32:57.473Z</time></trkpt><trkpt lat="45.8891867" lon="4.5785"><ele>291.0</ele><time>2026-04-02T13:32:59.473Z</time></trkpt><trkpt lat="45.88911" lon="4.5785633"><ele>291.0</ele><time>2026-04-02T13:33:02.473Z</time></trkpt><trkpt lat="45.8890433" lon="4.5786267"><ele>291.0</ele><time>2026-04-02T13:33:04.473Z</time></trkpt><trkpt lat="45.8889617" lon="4.5786883"><ele>290.8333333333333</ele><time>2026-04-02T13:33:06.473Z</time></trkpt><trkpt lat="45.88887" lon="4.5787417"><ele>290.6666666666667</ele><time>2026-04-02T13:33:08.473Z</time></trkpt><trkpt lat="45.8887867" lon="4.57878"><ele>290.5</ele><time>2026-04-02T13:33:10.473Z</time></trkpt><trkpt lat="45.8887217" lon="4.5788133"><ele>290.33333333333337</ele><time>2026-04-02T13:33:12.473Z</time></trkpt><trkpt lat="45.888655" lon="4.57888"><ele>290.1666666666667</ele><time>2026-04-02T13:33:14.473Z</time></trkpt><trkpt lat="45.88859" lon="4.5789517"><ele>290.0</ele><time>2026-04-02T13:33:16.473Z</time></trkpt><trkpt lat="45.88852" lon="4.5790283"><ele>290.0</ele><time>2026-04-02T13:33:18.473Z</time></trkpt><trkpt lat="45.8884667" lon="4.5790817"><ele>290.0</ele><time>2026-04-02T13:33:19.473Z</time></trkpt><trkpt lat="45.88841" lon="4.579135"><ele>290.0</ele><time>2026-04-02T13:33:20.473Z</time></trkpt><trkpt lat="45.8883433" lon="4.579215"><ele>290.0</ele><time>2026-04-02T13:33:22.473Z</time></trkpt><trkpt lat="45.8883" lon="4.5793233"><ele>290.0</ele><time>2026-04-02T13:33:25.473Z</time></trkpt><trkpt lat="45.88832" lon="4.5794133"><ele>290.0</ele><time>2026-04-02T13:33:27.473Z</time></trkpt><trkpt lat="45.88838" lon="4.579535"><ele>289.83333333333337</ele><time>2026-04-02T13:33:30.472Z</time></trkpt><trkpt lat="45.888425" lon="4.57961"><ele>289.6666666666667</ele><time>2026-04-02T13:33:31.473Z</time></trkpt><trkpt lat="45.888475" lon="4.57969"><ele>289.5</ele><time>2026-04-02T13:33:32.473Z</time></trkpt><trkpt lat="45.88853" lon="4.5797683"><ele>289.3333333333333</ele><time>2026-04-02T13:33:33.473Z</time></trkpt><trkpt lat="45.8885967" lon="4.57989"><ele>289.16666666666663</ele><time>2026-04-02T13:33:35.473Z</time></trkpt><trkpt lat="45.8886467" lon="4.5799717"><ele>289.0</ele><time>2026-04-02T13:33:37.473Z</time></trkpt><trkpt lat="45.8886967" lon="4.5800317"><ele>289.0</ele><time>2026-04-02T13:33:39.473Z</time></trkpt><trkpt lat="45.888755" lon="4.5801"><ele>289.0</ele><time>2026-04-02T13:33:41.473Z</time></trkpt><trkpt lat="45.8888267" lon="4.5801567"><ele>289.0</ele><time>2026-04-02T13:33:43.473Z</time></trkpt><trkpt lat="45.8889117" lon="4.5802333"><ele>289.0</ele><time>2026-04-02T13:33:45.473Z</time></trkpt><trkpt lat="45.88898" lon="4.580305"><ele>289.0</ele><time>2026-04-02T13:33:47.473Z</time></trkpt><trkpt lat="45.8890917" lon="4.580365"><ele>288.2</ele><time>2026-04-02T13:33:49.473Z</time></trkpt><trkpt lat="45.889195" lon="4.5804267"><ele>287.4</ele><time>2026-04-02T13:33:51.473Z</time></trkpt><trkpt lat="45.88928" lon="4.5804717"><ele>286.6</ele><time>2026-04-02T13:33:53.473Z</time></trkpt><trkpt lat="45.8893817" lon="4.580516"><ele>285.8</ele><time>2026-04-02T13:33:55.473Z</time></trkpt><trkpt lat="45.8894973" lon="4.5805903"><ele>285.0</ele><time>2026-04-02T13:33:57.473Z</time></trkpt><trkpt lat="45.8895533" lon="4.5806388"><ele>285.0</ele><time>2026-04-02T13:33:58.473Z</time></trkpt><trkpt lat="45.8896454" lon="4.5807236"><ele>285.0</ele><time>2026-04-02T13:34:00.473Z</time></trkpt><trkpt lat="45.8897444" lon="4.580822"><ele>285.0</ele><time>2026-04-02T13:34:02.473Z</time></trkpt><trkpt lat="45.8898191" lon="4.5809097"><ele>285.0</ele><time>2026-04-02T13:34:04.473Z</time></trkpt><trkpt lat="45.8899328" lon="4.5810123"><ele>285.0</ele><time>2026-04-02T13:34:07.473Z</time></trkpt><trkpt lat="45.8899967" lon="4.5810609"><ele>285.0</ele><time>2026-04-02T13:34:08.473Z</time></trkpt><trkpt lat="45.8900517" lon="4.5811091"><ele>285.0</ele><time>2026-04-02T13:34:09.473Z</time></trkpt><trkpt lat="45.8901413" lon="4.581201"><ele>285.0</ele><time>2026-04-02T13:34:11.472Z</time></trkpt><trkpt lat="45.8902403" lon="4.5813049"><ele>285.0</ele><time>2026-04-02T13:34:13.473Z</time></trkpt><trkpt lat="45.8903507" lon="4.5814078"><ele>284.8</ele><time>2026-04-02T13:34:15.473Z</time></trkpt><trkpt lat="45.8904031" lon="4.5814592"><ele>284.6</ele><time>2026-04-02T13:34:16.473Z</time></trkpt><trkpt lat="45.8904999" lon="4.5815452"><ele>284.4</ele><time>2026-04-02T13:34:18.473Z</time></trkpt><trkpt lat="45.8906114" lon="4.5816542"><ele>284.2</ele><time>2026-04-02T13:34:20.473Z</time></trkpt><trkpt lat="45.8906703" lon="4.5817134"><ele>284.0</ele><time>2026-04-02T13:34:21.473Z</time></trkpt><trkpt lat="45.8907586" lon="4.5818045"><ele>284.0</ele><time>2026-04-02T13:34:23.473Z</time></trkpt><trkpt lat="45.8908366" lon="4.5818879"><ele>284.0</ele><time>2026-04-02T13:34:25.473Z</time></trkpt><trkpt lat="45.890926" lon="4.5819727"><ele>284.0</ele><time>2026-04-02T13:34:27.473Z</time></trkpt><trkpt lat="45.8909863" lon="4.5820369"><ele>284.0</ele><time>2026-04-02T13:34:28.473Z</time></trkpt><trkpt lat="45.8910453" lon="4.5821106"><ele>284.0</ele><time>2026-04-02T13:34:29.473Z</time></trkpt><trkpt lat="45.8910955" lon="4.5821776"><ele>284.0</ele><time>2026-04-02T13:34:30.473Z</time></trkpt><trkpt lat="45.8911467" lon="4.5822459"><ele>283.83333333333337</ele><time>2026-04-02T13:34:31.473Z</time></trkpt><trkpt lat="45.8912039" lon="4.582319"><ele>283.6666666666667</ele><time>2026-04-02T13:34:32.473Z</time></trkpt><trkpt lat="45.8912608" lon="4.5823819"><ele>283.5</ele><time>2026-04-02T13:34:33.473Z</time></trkpt><trkpt lat="45.89134" lon="4.5824657"><ele>283.3333333333333</ele><time>2026-04-02T13:34:35.473Z</time></trkpt><trkpt lat="45.8914033" lon="4.5825383"><ele>283.16666666666663</ele><time>2026-04-02T13:34:37.473Z</time></trkpt><trkpt lat="45.8914883" lon="4.582635"><ele>283.0</ele><time>2026-04-02T13:34:39.473Z</time></trkpt><trkpt lat="45.891575" lon="4.5827233"><ele>283.0</ele><time>2026-04-02T13:34:41.472Z</time></trkpt><trkpt lat="45.8916183" lon="4.58279"><ele>283.0</ele><time>2026-04-02T13:34:43.473Z</time></trkpt></trkseg></trk></gpx>